Observation data for Caprock Canyons on 07/11/2018      Previous  Date       Current Mesonet Observations  Soil Data  Daily Summary Page  Observations in Plain Language
KQU1 110500Z 22006KT 24/18 A3012 RMK A01 T02400175  RH  067%=      5-min Rain = 0
KQU1 110501Z 22006KT 24/18 A3012 RMK A01 T02390175  RH  067%=      5-min Rain = 0
KQU1 110502Z 22006KT 24/18 A3012 RMK A01 T02390175  RH  067%=      5-min Rain = 0
KQU1 110503Z 22006KT 24/18 A3012 RMK A01 T02390175  RH  067%=      5-min Rain = 0
KQU1 110504Z 22006KT 24/18 A3012 RMK A01 T02380175  RH  068%=      5-min Rain = 0
KQU1 110505Z 22006KT 24/18 A3012 RMK A01 T02380175  RH  068%=      5-min Rain = 0
KQU1 110506Z 22006KT 24/18 A3012 RMK A01 T02380175  RH  068%=      5-min Rain = 0
KQU1 110507Z 23006KT 24/18 A3012 RMK A01 T02370175  RH  068%=      5-min Rain = 0
KQU1 110508Z 23006KT 24/18 A3012 RMK A01 T02370175  RH  068%=      5-min Rain = 0
KQU1 110509Z 23006KT 24/18 A3012 RMK A01 T02370175  RH  068%=      5-min Rain = 0
KQU1 110510Z 22006KT 24/18 A3012 RMK A01 T02370175  RH  068%=      5-min Rain = 0
KQU1 110511Z 23006KT 24/18 A3012 RMK A01 T02360175  RH  069%=      5-min Rain = 0
KQU1 110512Z 23006KT 24/18 A3012 RMK A01 T02360175  RH  069%=      5-min Rain = 0
KQU1 110513Z 22006KT 24/18 A3012 RMK A01 T02360175  RH  069%=      5-min Rain = 0
KQU1 110514Z 22006KT 24/18 A3012 RMK A01 T02360175  RH  069%=      5-min Rain = 0
KQU1 110515Z 23006KT 24/18 A3012 RMK A01 T02360175  RH  069%=      5-min Rain = 0
KQU1 110516Z 23006KT 24/18 A3012 RMK A01 T02350175  RH  069%=      5-min Rain = 0
KQU1 110517Z 23006KT 24/18 A3012 RMK A01 T02350175  RH  069%=      5-min Rain = 0
KQU1 110518Z 23006KT 24/18 A3012 RMK A01 T02350175  RH  069%=      5-min Rain = 0
KQU1 110519Z 23006KT 23/18 A3012 RMK A01 T02340175  RH  069%=      5-min Rain = 0
KQU1 110520Z 23006KT 23/18 A3012 RMK A01 T02340175  RH  069%=      5-min Rain = 0
KQU1 110521Z 22006KT 23/18 A3012 RMK A01 T02340175  RH  069%=      5-min Rain = 0
KQU1 110522Z 23006KT 23/18 A3012 RMK A01 T02340175  RH  069%=      5-min Rain = 0
KQU1 110523Z 23006KT 23/18 A3012 RMK A01 T02340175  RH  069%=      5-min Rain = 0
KQU1 110524Z 23006KT 23/18 A3012 RMK A01 T02340175  RH  069%=      5-min Rain = 0
KQU1 110525Z 23006KT 23/17 A3012 RMK A01 T02340174  RH  069%=      5-min Rain = 0
KQU1 110526Z 23006KT 23/17 A3012 RMK A01 T02340174  RH  069%=      5-min Rain = 0
KQU1 110527Z 23006KT 23/17 A3012 RMK A01 T02340174  RH  069%=      5-min Rain = 0
KQU1 110528Z 23006KT 23/17 A3012 RMK A01 T02340174  RH  069%=      5-min Rain = 0
KQU1 110529Z 22006KT 23/17 A3012 RMK A01 T02330174  RH  069%=      5-min Rain = 0
KQU1 110530Z 22006KT 23/17 A3012 RMK A01 T02330174  RH  069%=      5-min Rain = 0
KQU1 110531Z 22006KT 23/17 A3012 RMK A01 T02340174  RH  069%=      5-min Rain = 0
KQU1 110532Z 22005KT 23/17 A3012 RMK A01 T02340174  RH  069%=      5-min Rain = 0
KQU1 110533Z 22006KT 23/17 A3012 RMK A01 T02340174  RH  069%=      5-min Rain = 0
KQU1 110534Z 22006KT 23/17 A3012 RMK A01 T02340174  RH  069%=      5-min Rain = 0
KQU1 110535Z 22006KT 23/17 A3012 RMK A01 T02340173  RH  069%=      5-min Rain = 0
KQU1 110536Z 22006KT 23/17 A3012 RMK A01 T02340173  RH  069%=      5-min Rain = 0
KQU1 110537Z 22006KT 23/17 A3012 RMK A01 T02340173  RH  068%=      5-min Rain = 0
KQU1 110538Z 22006KT 23/17 A3012 RMK A01 T02340173  RH  068%=      5-min Rain = 0
KQU1 110539Z 22006KT 23/17 A3012 RMK A01 T02340173  RH  068%=      5-min Rain = 0
KQU1 110540Z 22006KT 24/17 A3012 RMK A01 T02350173  RH  068%=      5-min Rain = 0
KQU1 110541Z 22006KT 24/17 A3012 RMK A01 T02350173  RH  068%=      5-min Rain = 0
KQU1 110542Z 22006KT 24/17 A3012 RMK A01 T02350173  RH  068%=      5-min Rain = 0
KQU1 110543Z 22006KT 24/17 A3012 RMK A01 T02350173  RH  068%=      5-min Rain = 0
KQU1 110544Z 22006KT 24/17 A3012 RMK A01 T02360173  RH  068%=      5-min Rain = 0
KQU1 110545Z 23006KT 24/17 A3012 RMK A01 T02360173  RH  068%=      5-min Rain = 0
KQU1 110546Z 23006KT 24/17 A3012 RMK A01 T02350172  RH  068%=      5-min Rain = 0
KQU1 110547Z 22006KT 24/17 A3012 RMK A01 T02350172  RH  068%=      5-min Rain = 0
KQU1 110548Z 23006KT 23/17 A3012 RMK A01 T02340172  RH  068%=      5-min Rain = 0
KQU1 110549Z 23006KT 23/17 A3012 RMK A01 T02340172  RH  068%=      5-min Rain = 0
KQU1 110550Z 23006KT 23/17 A3012 RMK A01 T02340172  RH  068%=      5-min Rain = 0
KQU1 110551Z 23006KT 23/17 A3012 RMK A01 T02340172  RH  068%=      5-min Rain = 0
KQU1 110552Z 23005KT 23/17 A3012 RMK A01 T02340172  RH  068%=      5-min Rain = 0
KQU1 110553Z 23005KT 23/17 A3012 RMK A01 T02340172  RH  068%=      5-min Rain = 0
KQU1 110554Z 22005KT 23/17 A3012 RMK A01 T02340172  RH  068%=      5-min Rain = 0
KQU1 110555Z 23005KT 23/17 A3012 RMK A01 T02340172  RH  068%=      5-min Rain = 0
KQU1 110556Z 23005KT 23/17 A3012 RMK A01 T02330172  RH  068%=      5-min Rain = 0
KQU1 110557Z 23005KT 23/17 A3012 RMK A01 T02330171  RH  068%=      5-min Rain = 0
KQU1 110558Z 23005KT 23/17 A3012 RMK A01 T02330171  RH  068%=      5-min Rain = 0
KQU1 110559Z 23005KT 23/17 A3012 RMK A01 T02330171  RH  068%=      5-min Rain = 0
KQU1 110600Z 23005KT 23/17 A3012 RMK A01 T02330171  RH  068%=      5-min Rain = 0
KQU1 110601Z 22005KT 23/17 A3012 RMK A01 T02330171  RH  068%=      5-min Rain = 0
KQU1 110602Z 22005KT 23/17 A3012 RMK A01 T02330171  RH  068%=      5-min Rain = 0
KQU1 110603Z 22005KT 23/17 A3012 RMK A01 T02330171  RH  068%=      5-min Rain = 0
KQU1 110604Z 21005KT 23/17 A3012 RMK A01 T02330171  RH  068%=      5-min Rain = 0
KQU1 110605Z 21005KT 23/17 A3012 RMK A01 T02330171  RH  068%=      5-min Rain = 0
KQU1 110606Z 21005KT 23/17 A3012 RMK A01 T02330171  RH  068%=      5-min Rain = 0
KQU1 110607Z 21004KT 23/17 A3012 RMK A01 T02330171  RH  068%=      5-min Rain = 0
KQU1 110608Z 21004KT 23/17 A3012 RMK A01 T02330170  RH  068%=      5-min Rain = 0
KQU1 110609Z 20004KT 23/17 A3012 RMK A01 T02340170  RH  068%=      5-min Rain = 0
KQU1 110610Z 20005KT 23/17 A3012 RMK A01 T02340170  RH  068%=      5-min Rain = 0
KQU1 110611Z 20005KT 23/17 A3012 RMK A01 T02340170  RH  067%=      5-min Rain = 0
KQU1 110612Z 20005KT 23/17 A3012 RMK A01 T02340170  RH  067%=      5-min Rain = 0
KQU1 110613Z 20005KT 24/17 A3012 RMK A01 T02350170  RH  067%=      5-min Rain = 0
KQU1 110614Z 20005KT 24/17 A3012 RMK A01 T02350170  RH  067%=      5-min Rain = 0
KQU1 110615Z 20005KT 24/17 A3012 RMK A01 T02350170  RH  067%=      5-min Rain = 0
KQU1 110616Z 20005KT 24/17 A3012 RMK A01 T02360170  RH  067%=      5-min Rain = 0
KQU1 110617Z 19005KT 24/17 A3011 RMK A01 T02350170  RH  067%=      5-min Rain = 0
KQU1 110618Z 19005KT 24/17 A3011 RMK A01 T02350170  RH  067%=      5-min Rain = 0
KQU1 110619Z 20005KT 23/17 A3011 RMK A01 T02340169  RH  067%=      5-min Rain = 0
KQU1 110620Z 20005KT 23/17 A3011 RMK A01 T02340169  RH  067%=      5-min Rain = 0
KQU1 110621Z 20005KT 23/17 A3011 RMK A01 T02330169  RH  067%=      5-min Rain = 0
KQU1 110622Z 20005KT 23/17 A3011 RMK A01 T02330170  RH  068%=      5-min Rain = 0
KQU1 110623Z 20005KT 23/17 A3011 RMK A01 T02320170  RH  068%=      5-min Rain = 0
KQU1 110624Z 20005KT 23/17 A3011 RMK A01 T02320170  RH  068%=      5-min Rain = 0
KQU1 110625Z 20005KT 23/17 A3011 RMK A01 T02320170  RH  068%=      5-min Rain = 0
KQU1 110626Z 20005KT 23/17 A3011 RMK A01 T02310169  RH  068%=      5-min Rain = 0
KQU1 110627Z 20005KT 23/17 A3011 RMK A01 T02310169  RH  068%=      5-min Rain = 0
KQU1 110628Z 20005KT 23/17 A3011 RMK A01 T02310169  RH  068%=      5-min Rain = 0
KQU1 110629Z 20005KT 23/17 A3011 RMK A01 T02310169  RH  068%=      5-min Rain = 0
KQU1 110630Z 19005KT 23/17 A3011 RMK A01 T02310169  RH  068%=      5-min Rain = 0
KQU1 110631Z 19005KT 23/17 A3011 RMK A01 T02310169  RH  068%=      5-min Rain = 0
KQU1 110632Z 19005KT 23/17 A3011 RMK A01 T02300169  RH  068%=      5-min Rain = 0
KQU1 110633Z 18004KT 23/17 A3011 RMK A01 T02300169  RH  068%=      5-min Rain = 0
KQU1 110634Z 18004KT 23/17 A3011 RMK A01 T02300169  RH  068%=      5-min Rain = 0
KQU1 110635Z 17004KT 23/17 A3011 RMK A01 T02300169  RH  068%=      5-min Rain = 0
KQU1 110636Z 17004KT 23/17 A3011 RMK A01 T02300169  RH  068%=      5-min Rain = 0
KQU1 110637Z 15004KT 23/17 A3012 RMK A01 T02290168  RH  068%=      5-min Rain = 0
KQU1 110638Z 14004KT 23/17 A3012 RMK A01 T02290168  RH  069%=      5-min Rain = 0
KQU1 110639Z 12005KT 23/17 A3012 RMK A01 T02280169  RH  069%=      5-min Rain = 0
KQU1 110640Z 11006KT 23/17 A3012 RMK A01 T02280169  RH  069%=      5-min Rain = 0
KQU1 110641Z 12005KT 23/17 A3012 RMK A01 T02270170  RH  070%=      5-min Rain = 0
KQU1 110642Z 12005KT 23/17 A3012 RMK A01 T02270170  RH  070%=      5-min Rain = 0
KQU1 110643Z 12006KT 23/17 A3012 RMK A01 T02270170  RH  070%=      5-min Rain = 0
KQU1 110644Z 12005KT 23/17 A3012 RMK A01 T02270170  RH  070%=      5-min Rain = 0
KQU1 110645Z 12005KT 23/17 A3012 RMK A01 T02270171  RH  071%=      5-min Rain = 0
KQU1 110646Z 12006KT 23/17 A3012 RMK A01 T02270171  RH  071%=      5-min Rain = 0
KQU1 110647Z 12006KT 23/17 A3012 RMK A01 T02260171  RH  071%=      5-min Rain = 0
KQU1 110648Z 12006KT 23/17 A3012 RMK A01 T02260171  RH  071%=      5-min Rain = 0
KQU1 110649Z 11006KT 23/17 A3012 RMK A01 T02260171  RH  071%=      5-min Rain = 0
KQU1 110650Z 11005KT 23/17 A3012 RMK A01 T02260172  RH  072%=      5-min Rain = 0
KQU1 110651Z 11005KT 23/17 A3012 RMK A01 T02250172  RH  072%=      5-min Rain = 0
KQU1 110652Z 11005KT 23/17 A3012 RMK A01 T02250172  RH  072%=      5-min Rain = 0
KQU1 110653Z 11005KT 23/17 A3012 RMK A01 T02250172  RH  072%=      5-min Rain = 0
KQU1 110654Z 11005KT 23/17 A3012 RMK A01 T02250172  RH  072%=      5-min Rain = 0
KQU1 110655Z 11004KT 23/17 A3012 RMK A01 T02250172  RH  072%=      5-min Rain = 0
KQU1 110656Z 12005KT 23/17 A3012 RMK A01 T02250172  RH  072%=      5-min Rain = 0
KQU1 110657Z 12005KT 22/17 A3012 RMK A01 T02240172  RH  072%=      5-min Rain = 0
KQU1 110658Z 12005KT 22/17 A3012 RMK A01 T02240172  RH  073%=      5-min Rain = 0
KQU1 110659Z 11004KT 22/17 A3012 RMK A01 T02230173  RH  073%=      5-min Rain = 0
KQU1 110700Z 12004KT 22/17 A3012 RMK A01 T02230173  RH  073%=      5-min Rain = 0
KQU1 110701Z 13003KT 22/17 A3012 RMK A01 T02220172  RH  073%=      5-min Rain = 0
KQU1 110702Z 13003KT 22/17 A3012 RMK A01 T02210171  RH  073%=      5-min Rain = 0
KQU1 110703Z 13004KT 22/17 A3012 RMK A01 T02200172  RH  074%=      5-min Rain = 0
KQU1 110704Z 13005KT 22/17 A3012 RMK A01 T02200173  RH  075%=      5-min Rain = 0
KQU1 110705Z 13004KT 22/17 A3012 RMK A01 T02200174  RH  075%=      5-min Rain = 0
KQU1 110706Z 13005KT 22/18 A3012 RMK A01 T02200175  RH  076%=      5-min Rain = 0
KQU1 110707Z 13006KT 22/18 A3012 RMK A01 T02200175  RH  076%=      5-min Rain = 0
KQU1 110708Z 12006KT 22/18 A3012 RMK A01 T02200177  RH  076%=      5-min Rain = 0
KQU1 110709Z 14005KT 22/18 A3012 RMK A01 T02210178  RH  077%=      5-min Rain = 0
KQU1 110710Z 14005KT 22/18 A3013 RMK A01 T02210179  RH  077%=      5-min Rain = 0
KQU1 110711Z 15005KT 22/18 A3013 RMK A01 T02210180  RH  077%=      5-min Rain = 0
KQU1 110712Z 15004KT 22/18 A3012 RMK A01 T02210180  RH  077%=      5-min Rain = 0
KQU1 110713Z 15004KT 22/18 A3012 RMK A01 T02210179  RH  077%=      5-min Rain = 0
KQU1 110714Z 14004KT 22/18 A3012 RMK A01 T02210179  RH  077%=      5-min Rain = 0
KQU1 110715Z 14004KT 22/18 A3012 RMK A01 T02210180  RH  077%=      5-min Rain = 0
KQU1 110716Z 15004KT 22/18 A3012 RMK A01 T02210180  RH  077%=      5-min Rain = 0
KQU1 110717Z 15003KT 22/18 A3012 RMK A01 T02210180  RH  077%=      5-min Rain = 0
KQU1 110718Z 15003KT 22/18 A3012 RMK A01 T02210180  RH  078%=      5-min Rain = 0
KQU1 110719Z 15004KT 22/18 A3013 RMK A01 T02210181  RH  078%=      5-min Rain = 0
KQU1 110720Z 15005KT 22/18 A3013 RMK A01 T02210181  RH  078%=      5-min Rain = 0
KQU1 110721Z 15005KT 22/18 A3013 RMK A01 T02210181  RH  078%=      5-min Rain = 0
KQU1 110722Z 16004KT 22/18 A3013 RMK A01 T02210182  RH  078%=      5-min Rain = 0
KQU1 110723Z 17003KT 22/18 A3013 RMK A01 T02210182  RH  078%=      5-min Rain = 0
KQU1 110724Z 19003KT 22/18 A3013 RMK A01 T02220182  RH  078%=      5-min Rain = 0
KQU1 110725Z 19003KT 22/18 A3013 RMK A01 T02220183  RH  078%=      5-min Rain = 0
KQU1 110726Z 18003KT 22/18 A3013 RMK A01 T02230182  RH  078%=      5-min Rain = 0
KQU1 110727Z 17003KT 22/18 A3013 RMK A01 T02230182  RH  077%=      5-min Rain = 0
KQU1 110728Z 17003KT 22/18 A3013 RMK A01 T02240182  RH  077%=      5-min Rain = 0
KQU1 110729Z 19003KT 22/18 A3013 RMK A01 T02240183  RH  077%=      5-min Rain = 0
KQU1 110730Z 21003KT 23/18 A3013 RMK A01 T02250182  RH  077%=      5-min Rain = 0
KQU1 110731Z 20003KT 23/18 A3013 RMK A01 T02250183  RH  077%=      5-min Rain = 0
KQU1 110732Z 21003KT 23/18 A3013 RMK A01 T02250183  RH  077%=      5-min Rain = 0
KQU1 110733Z 21003KT 23/18 A3013 RMK A01 T02260183  RH  077%=      5-min Rain = 0
KQU1 110734Z 20003KT 23/18 A3013 RMK A01 T02260184  RH  077%=      5-min Rain = 0
KQU1 110735Z 20004KT 23/18 A3013 RMK A01 T02270184  RH  077%=      5-min Rain = 0
KQU1 110736Z 20003KT 23/18 A3013 RMK A01 T02270184  RH  076%=      5-min Rain = 0
KQU1 110737Z 20003KT 23/18 A3013 RMK A01 T02280184  RH  076%=      5-min Rain = 0
KQU1 110738Z 19003KT 23/18 A3013 RMK A01 T02280184  RH  076%=      5-min Rain = 0
KQU1 110739Z 18003KT 23/18 A3013 RMK A01 T02280184  RH  076%=      5-min Rain = 0
KQU1 110740Z 19002KT 23/18 A3013 RMK A01 T02290183  RH  076%=      5-min Rain = 0
KQU1 110741Z 20003KT 23/18 A3013 RMK A01 T02290183  RH  075%=      5-min Rain = 0
KQU1 110742Z 20003KT 23/18 A3013 RMK A01 T02290183  RH  075%=      5-min Rain = 0
KQU1 110743Z 19003KT 23/18 A3013 RMK A01 T02290183  RH  075%=      5-min Rain = 0
KQU1 110744Z 19003KT 23/18 A3013 RMK A01 T02290183  RH  075%=      5-min Rain = 0
KQU1 110745Z 19003KT 23/18 A3013 RMK A01 T02290184  RH  075%=      5-min Rain = 0
KQU1 110746Z 19003KT 23/18 A3013 RMK A01 T02290183  RH  075%=      5-min Rain = 0
KQU1 110747Z 19003KT 23/18 A3013 RMK A01 T02290183  RH  075%=      5-min Rain = 0
KQU1 110748Z 20003KT 23/18 A3013 RMK A01 T02290183  RH  075%=      5-min Rain = 0
KQU1 110749Z 20003KT 23/18 A3013 RMK A01 T02290183  RH  075%=      5-min Rain = 0
KQU1 110750Z 20003KT 23/18 A3013 RMK A01 T02290183  RH  075%=      5-min Rain = 0
KQU1 110751Z 20003KT 23/18 A3013 RMK A01 T02290183  RH  075%=      5-min Rain = 0
KQU1 110752Z 20003KT 23/18 A3013 RMK A01 T02290183  RH  075%=      5-min Rain = 0
KQU1 110753Z 20003KT 23/18 A3013 RMK A01 T02290183  RH  075%=      5-min Rain = 0
KQU1 110754Z 20003KT 23/18 A3013 RMK A01 T02290183  RH  075%=      5-min Rain = 0
KQU1 110755Z 19003KT 23/18 A3013 RMK A01 T02290183  RH  075%=      5-min Rain = 0
KQU1 110756Z 20003KT 23/18 A3013 RMK A01 T02290183  RH  075%=      5-min Rain = 0
KQU1 110757Z 20003KT 23/18 A3013 RMK A01 T02290183  RH  075%=      5-min Rain = 0
KQU1 110758Z 20003KT 23/18 A3013 RMK A01 T02290183  RH  075%=      5-min Rain = 0
KQU1 110759Z 19003KT 23/18 A3013 RMK A01 T02290183  RH  075%=      5-min Rain = 0
KQU1 110800Z 19003KT 23/18 A3013 RMK A01 T02290183  RH  075%=      5-min Rain = 0
KQU1 110801Z 19003KT 23/18 A3013 RMK A01 T02290182  RH  075%=      5-min Rain = 0
KQU1 110802Z 19003KT 23/18 A3012 RMK A01 T02290182  RH  075%=      5-min Rain = 0
KQU1 110803Z 19003KT 23/18 A3012 RMK A01 T02290182  RH  075%=      5-min Rain = 0
KQU1 110804Z 19003KT 23/18 A3012 RMK A01 T02290182  RH  075%=      5-min Rain = 0
KQU1 110805Z 19003KT 23/18 A3012 RMK A01 T02290182  RH  075%=      5-min Rain = 0
KQU1 110806Z 19003KT 23/18 A3012 RMK A01 T02290182  RH  075%=      5-min Rain = 0
KQU1 110807Z 21004KT 23/18 A3012 RMK A01 T02290182  RH  075%=      5-min Rain = 0
KQU1 110808Z 21004KT 23/18 A3012 RMK A01 T02290181  RH  075%=      5-min Rain = 0
KQU1 110809Z 21004KT 23/18 A3012 RMK A01 T02280181  RH  075%=      5-min Rain = 0
KQU1 110810Z 22004KT 23/18 A3012 RMK A01 T02280181  RH  075%=      5-min Rain = 0
KQU1 110811Z 22004KT 23/18 A3012 RMK A01 T02280181  RH  075%=      5-min Rain = 0
KQU1 110812Z 22005KT 23/18 A3012 RMK A01 T02270181  RH  075%=      5-min Rain = 0
KQU1 110813Z 23005KT 23/18 A3012 RMK A01 T02270180  RH  075%=      5-min Rain = 0
KQU1 110814Z 22005KT 23/18 A3012 RMK A01 T02260180  RH  075%=      5-min Rain = 0
KQU1 110815Z 23006KT 23/18 A3012 RMK A01 T02260180  RH  075%=      5-min Rain = 0
KQU1 110816Z 23005KT 23/18 A3012 RMK A01 T02260180  RH  075%=      5-min Rain = 0
KQU1 110817Z 21005KT 23/18 A3012 RMK A01 T02260180  RH  075%=      5-min Rain = 0
KQU1 110818Z 21005KT 23/18 A3012 RMK A01 T02260180  RH  075%=      5-min Rain = 0
KQU1 110819Z 21005KT 23/18 A3012 RMK A01 T02260180  RH  075%=      5-min Rain = 0
KQU1 110820Z 21005KT 23/18 A3012 RMK A01 T02260180  RH  075%=      5-min Rain = 0
KQU1 110821Z 21005KT 23/18 A3012 RMK A01 T02270180  RH  075%=      5-min Rain = 0
KQU1 110822Z 21005KT 23/18 A3012 RMK A01 T02270180  RH  075%=      5-min Rain = 0
KQU1 110823Z 22005KT 23/18 A3012 RMK A01 T02270179  RH  074%=      5-min Rain = 0
KQU1 110824Z 22006KT 23/18 A3012 RMK A01 T02270179  RH  074%=      5-min Rain = 0
KQU1 110825Z 22006KT 23/18 A3012 RMK A01 T02270179  RH  074%=      5-min Rain = 0
KQU1 110826Z 22005KT 23/18 A3012 RMK A01 T02260178  RH  074%=      5-min Rain = 0
KQU1 110827Z 22006KT 23/18 A3012 RMK A01 T02260178  RH  074%=      5-min Rain = 0
KQU1 110828Z 22006KT 23/18 A3012 RMK A01 T02260178  RH  074%=      5-min Rain = 0
KQU1 110829Z 22007KT 23/18 A3012 RMK A01 T02260178  RH  074%=      5-min Rain = 0
KQU1 110830Z 22007KT 23/18 A3012 RMK A01 T02260177  RH  074%=      5-min Rain = 0
KQU1 110831Z 23007KT 23/18 A3012 RMK A01 T02260177  RH  074%=      5-min Rain = 0
KQU1 110832Z 22007KT 23/18 A3012 RMK A01 T02270177  RH  073%=      5-min Rain = 0
KQU1 110833Z 22007KT 23/18 A3012 RMK A01 T02270177  RH  073%=      5-min Rain = 0
KQU1 110834Z 22007KT 23/18 A3011 RMK A01 T02270177  RH  073%=      5-min Rain = 0
KQU1 110835Z 22007KT 23/18 A3011 RMK A01 T02270177  RH  073%=      5-min Rain = 0
KQU1 110836Z 22007KT 23/18 A3011 RMK A01 T02270176  RH  073%=      5-min Rain = 0
KQU1 110837Z 22007KT 23/18 A3011 RMK A01 T02270176  RH  073%=      5-min Rain = 0
KQU1 110838Z 22006KT 23/18 A3011 RMK A01 T02270176  RH  073%=      5-min Rain = 0
KQU1 110839Z 22007KT 23/18 A3011 RMK A01 T02260176  RH  073%=      5-min Rain = 0
KQU1 110840Z 22007KT 23/18 A3011 RMK A01 T02260176  RH  073%=      5-min Rain = 0
KQU1 110841Z 22007KT 23/18 A3011 RMK A01 T02260176  RH  073%=      5-min Rain = 0
KQU1 110842Z 23007KT 23/18 A3011 RMK A01 T02260176  RH  073%=      5-min Rain = 0
KQU1 110843Z 22008KT 23/18 A3011 RMK A01 T02260175  RH  073%=      5-min Rain = 0
KQU1 110844Z 22008KT 23/18 A3011 RMK A01 T02270175  RH  073%=      5-min Rain = 0
KQU1 110845Z 22008KT 23/18 A3011 RMK A01 T02280175  RH  072%=      5-min Rain = 0
KQU1 110846Z 22008KT 23/17 A3011 RMK A01 T02290174  RH  071%=      5-min Rain = 0
KQU1 110847Z 21008KT 23/17 A3011 RMK A01 T02300174  RH  070%=      5-min Rain = 0
KQU1 110848Z 22008KT 23/17 A3011 RMK A01 T02310173  RH  070%=      5-min Rain = 0
KQU1 110849Z 22009KT 23/17 A3011 RMK A01 T02330173  RH  069%=      5-min Rain = 0
KQU1 110850Z 22008KT 23/17 A3011 RMK A01 T02340173  RH  069%=      5-min Rain = 0
KQU1 110851Z 22008KT 23/17 A3011 RMK A01 T02340173  RH  068%=      5-min Rain = 0
KQU1 110852Z 22009KT 24/17 A3011 RMK A01 T02350173  RH  068%=      5-min Rain = 0
KQU1 110853Z 22009KT 24/17 A3011 RMK A01 T02360172  RH  068%=      5-min Rain = 0
KQU1 110854Z 22008KT 24/17 A3011 RMK A01 T02360172  RH  067%=      5-min Rain = 0
KQU1 110855Z 21008KT 24/17 A3011 RMK A01 T02370172  RH  067%=      5-min Rain = 0
KQU1 110856Z 21008KT 24/17 A3011 RMK A01 T02370172  RH  067%=      5-min Rain = 0
KQU1 110857Z 21008KT 24/17 A3011 RMK A01 T02370172  RH  067%=      5-min Rain = 0
KQU1 110858Z 21008KT 24/17 A3011 RMK A01 T02370172  RH  067%=      5-min Rain = 0
KQU1 110859Z 21007KT 24/17 A3012 RMK A01 T02370172  RH  067%=      5-min Rain = 0
KQU1 110900Z 21007KT 24/17 A3012 RMK A01 T02370172  RH  067%=      5-min Rain = 0
KQU1 110901Z 21007KT 24/17 A3012 RMK A01 T02370172  RH  067%=      5-min Rain = 0
KQU1 110902Z 21007KT 24/17 A3012 RMK A01 T02370172  RH  067%=      5-min Rain = 0
KQU1 110903Z 21007KT 24/17 A3012 RMK A01 T02370172  RH  067%=      5-min Rain = 0
KQU1 110904Z 21008KT 24/17 A3012 RMK A01 T02370172  RH  067%=      5-min Rain = 0
KQU1 110905Z 21008KT 24/17 A3012 RMK A01 T02370173  RH  067%=      5-min Rain = 0
KQU1 110906Z 21008KT 24/17 A3012 RMK A01 T02370173  RH  067%=      5-min Rain = 0
KQU1 110907Z 20007KT 24/17 A3012 RMK A01 T02370172  RH  067%=      5-min Rain = 0
KQU1 110908Z 21007KT 24/17 A3012 RMK A01 T02360172  RH  067%=      5-min Rain = 0
KQU1 110909Z 20006KT 24/17 A3012 RMK A01 T02360172  RH  067%=      5-min Rain = 0
KQU1 110910Z 20006KT 24/17 A3012 RMK A01 T02360172  RH  067%=      5-min Rain = 0
KQU1 110911Z 20007KT 24/17 A3012 RMK A01 T02350172  RH  068%=      5-min Rain = 0
KQU1 110912Z 20006KT 24/17 A3012 RMK A01 T02350172  RH  068%=      5-min Rain = 0
KQU1 110913Z 20006KT 24/17 A3012 RMK A01 T02350172  RH  068%=      5-min Rain = 0
KQU1 110914Z 20006KT 23/17 A3012 RMK A01 T02340172  RH  068%=      5-min Rain = 0
KQU1 110915Z 21007KT 23/17 A3012 RMK A01 T02340172  RH  068%=      5-min Rain = 0
KQU1 110916Z 21007KT 23/17 A3012 RMK A01 T02340172  RH  068%=      5-min Rain = 0
KQU1 110917Z 21007KT 23/17 A3012 RMK A01 T02340172  RH  068%=      5-min Rain = 0
KQU1 110918Z 21007KT 23/17 A3012 RMK A01 T02340172  RH  068%=      5-min Rain = 0
KQU1 110919Z 21007KT 24/17 A3011 RMK A01 T02350172  RH  068%=      5-min Rain = 0
KQU1 110920Z 21007KT 24/17 A3011 RMK A01 T02350172  RH  068%=      5-min Rain = 0
KQU1 110921Z 21008KT 24/17 A3011 RMK A01 T02350172  RH  068%=      5-min Rain = 0
KQU1 110922Z 21007KT 24/17 A3011 RMK A01 T02350172  RH  068%=      5-min Rain = 0
KQU1 110923Z 21007KT 24/17 A3011 RMK A01 T02360172  RH  068%=      5-min Rain = 0
KQU1 110924Z 21007KT 24/17 A3011 RMK A01 T02360172  RH  067%=      5-min Rain = 0
KQU1 110925Z 21007KT 24/17 A3011 RMK A01 T02360172  RH  067%=      5-min Rain = 0
KQU1 110926Z 21007KT 24/17 A3011 RMK A01 T02360172  RH  067%=      5-min Rain = 0
KQU1 110927Z 21008KT 24/17 A3011 RMK A01 T02360172  RH  067%=      5-min Rain = 0
KQU1 110928Z 21008KT 24/17 A3011 RMK A01 T02360172  RH  068%=      5-min Rain = 0
KQU1 110929Z 21007KT 24/17 A3011 RMK A01 T02360173  RH  068%=      5-min Rain = 0
KQU1 110930Z 21007KT 24/17 A3011 RMK A01 T02360173  RH  068%=      5-min Rain = 0
KQU1 110931Z 21008KT 24/17 A3011 RMK A01 T02360173  RH  068%=      5-min Rain = 0
KQU1 110932Z 21008KT 24/17 A3011 RMK A01 T02360173  RH  068%=      5-min Rain = 0
KQU1 110933Z 22007KT 24/17 A3011 RMK A01 T02370173  RH  068%=      5-min Rain = 0
KQU1 110934Z 21008KT 24/17 A3011 RMK A01 T02370173  RH  068%=      5-min Rain = 0
KQU1 110935Z 22008KT 24/17 A3011 RMK A01 T02370174  RH  068%=      5-min Rain = 0
KQU1 110936Z 22009KT 24/17 A3011 RMK A01 T02370174  RH  068%=      5-min Rain = 0
KQU1 110937Z 21008KT 24/17 A3011 RMK A01 T02370174  RH  068%=      5-min Rain = 0
KQU1 110938Z 21008KT 24/17 A3011 RMK A01 T02370174  RH  068%=      5-min Rain = 0
KQU1 110939Z 21008KT 24/18 A3011 RMK A01 T02370175  RH  068%=      5-min Rain = 0
KQU1 110940Z 21008KT 24/18 A3011 RMK A01 T02370175  RH  068%=      5-min Rain = 0
KQU1 110941Z 21008KT 24/18 A3011 RMK A01 T02370175  RH  068%=      5-min Rain = 0
KQU1 110942Z 21008KT 24/18 A3011 RMK A01 T02370176  RH  068%=      5-min Rain = 0
KQU1 110943Z 21008KT 24/18 A3011 RMK A01 T02370176  RH  069%=      5-min Rain = 0
KQU1 110944Z 21007KT 24/18 A3011 RMK A01 T02370176  RH  069%=      5-min Rain = 0
KQU1 110945Z 21008KT 24/18 A3011 RMK A01 T02370176  RH  069%=      5-min Rain = 0
KQU1 110946Z 21007KT 24/18 A3011 RMK A01 T02370177  RH  069%=      5-min Rain = 0
KQU1 110947Z 20008KT 24/18 A3011 RMK A01 T02370177  RH  069%=      5-min Rain = 0
KQU1 110948Z 20008KT 24/18 A3011 RMK A01 T02370177  RH  069%=      5-min Rain = 0
KQU1 110949Z 20008KT 24/18 A3011 RMK A01 T02360177  RH  069%=      5-min Rain = 0
KQU1 110950Z 21008KT 24/18 A3011 RMK A01 T02360178  RH  070%=      5-min Rain = 0
KQU1 110951Z 20008KT 24/18 A3011 RMK A01 T02360178  RH  070%=      5-min Rain = 0
KQU1 110952Z 20007KT 24/18 A3011 RMK A01 T02360178  RH  070%=      5-min Rain = 0
KQU1 110953Z 20009KT 24/18 A3011 RMK A01 T02360179  RH  070%=      5-min Rain = 0
KQU1 110954Z 20008KT 24/18 A3011 RMK A01 T02360179  RH  070%=      5-min Rain = 0
KQU1 110955Z 20009KT 24/18 A3011 RMK A01 T02360179  RH  070%=      5-min Rain = 0
KQU1 110956Z 20007KT 24/18 A3011 RMK A01 T02360179  RH  070%=      5-min Rain = 0
KQU1 110957Z 21008KT 24/18 A3011 RMK A01 T02360179  RH  070%=      5-min Rain = 0
KQU1 110958Z 21008KT 24/18 A3011 RMK A01 T02360179  RH  070%=      5-min Rain = 0
KQU1 110959Z 21008KT 24/18 A301 RMK A01 T02360180  RH  071%=      5-min Rain = 0
KQU1 111000Z 21008KT 24/18 A301 RMK A01 T02360180  RH  071%=      5-min Rain = 0
KQU1 111001Z 21008KT 24/18 A301 RMK A01 T02360180  RH  071%=      5-min Rain = 0
KQU1 111002Z 21009KT 24/18 A301 RMK A01 T02360180  RH  071%=      5-min Rain = 0
KQU1 111003Z 21008KT 24/18 A301 RMK A01 T02370180  RH  071%=      5-min Rain = 0
KQU1 111004Z 21008KT 24/18 A301 RMK A01 T02370180  RH  070%=      5-min Rain = 0
KQU1 111005Z 21008KT 24/18 A301 RMK A01 T02370180  RH  070%=      5-min Rain = 0
KQU1 111006Z 21009KT 24/18 A301 RMK A01 T02370180  RH  070%=      5-min Rain = 0
KQU1 111007Z 21009KT 24/18 A301 RMK A01 T02370180  RH  070%=      5-min Rain = 0
KQU1 111008Z 21008KT 24/18 A301 RMK A01 T02370180  RH  070%=      5-min Rain = 0
KQU1 111009Z 21008KT 24/18 A301 RMK A01 T02360180  RH  070%=      5-min Rain = 0
KQU1 111010Z 21008KT 24/18 A301 RMK A01 T02360180  RH  070%=      5-min Rain = 0
KQU1 111011Z 21008KT 24/18 A301 RMK A01 T02360179  RH  071%=      5-min Rain = 0
KQU1 111012Z 21008KT 24/18 A301 RMK A01 T02360179  RH  071%=      5-min Rain = 0
KQU1 111013Z 21008KT 24/18 A301 RMK A01 T02350179  RH  071%=      5-min Rain = 0
KQU1 111014Z 21008KT 24/18 A301 RMK A01 T02350179  RH  071%=      5-min Rain = 0
KQU1 111015Z 21008KT 24/18 A301 RMK A01 T02350179  RH  071%=      5-min Rain = 0
KQU1 111016Z 21008KT 24/18 A301 RMK A01 T02350179  RH  071%=      5-min Rain = 0
KQU1 111017Z 21008KT 24/18 A3009 RMK A01 T02350179  RH  071%=      5-min Rain = 0
KQU1 111018Z 21008KT 24/18 A3009 RMK A01 T02350179  RH  071%=      5-min Rain = 0
KQU1 111019Z 21008KT 24/18 A3009 RMK A01 T02350179  RH  071%=      5-min Rain = 0
KQU1 111020Z 21008KT 24/18 A3009 RMK A01 T02350179  RH  071%=      5-min Rain = 0
KQU1 111021Z 21008KT 24/18 A3009 RMK A01 T02350179  RH  071%=      5-min Rain = 0
KQU1 111022Z 21009KT 24/18 A3009 RMK A01 T02350179  RH  071%=      5-min Rain = 0
KQU1 111023Z 21008KT 24/18 A3009 RMK A01 T02360179  RH  070%=      5-min Rain = 0
KQU1 111024Z 21008KT 24/18 A3009 RMK A01 T02360179  RH  070%=      5-min Rain = 0
KQU1 111025Z 21010KT 24/18 A3009 RMK A01 T02360179  RH  070%=      5-min Rain = 0
KQU1 111026Z 21008KT 24/18 A3009 RMK A01 T02370178  RH  070%=      5-min Rain = 0
KQU1 111027Z 21009KT 24/18 A3009 RMK A01 T02370178  RH  070%=      5-min Rain = 0
KQU1 111028Z 21009KT 24/18 A3009 RMK A01 T02370178  RH  070%=      5-min Rain = 0
KQU1 111029Z 21009KT 24/18 A3009 RMK A01 T02370178  RH  069%=      5-min Rain = 0
KQU1 111030Z 21009KT 24/18 A3009 RMK A01 T02370178  RH  069%=      5-min Rain = 0
KQU1 111031Z 21009KT 24/18 A3009 RMK A01 T02370178  RH  069%=      5-min Rain = 0
KQU1 111032Z 21009KT 24/18 A3009 RMK A01 T02370177  RH  069%=      5-min Rain = 0
KQU1 111033Z 21008KT 24/18 A3009 RMK A01 T02370177  RH  069%=      5-min Rain = 0
KQU1 111034Z 21009KT 24/18 A3009 RMK A01 T02370177  RH  069%=      5-min Rain = 0
KQU1 111035Z 21008KT 24/18 A3009 RMK A01 T02370177  RH  069%=      5-min Rain = 0
KQU1 111036Z 21008KT 24/18 A3009 RMK A01 T02370177  RH  069%=      5-min Rain = 0
KQU1 111037Z 21008KT 24/18 A3009 RMK A01 T02380177  RH  069%=      5-min Rain = 0
KQU1 111038Z 21009KT 24/18 A3009 RMK A01 T02370176  RH  069%=      5-min Rain = 0
KQU1 111039Z 21009KT 24/18 A3009 RMK A01 T02370176  RH  069%=      5-min Rain = 0
KQU1 111040Z 21009KT 24/18 A3009 RMK A01 T02370176  RH  068%=      5-min Rain = 0
KQU1 111041Z 21009KT 24/18 A3009 RMK A01 T02380176  RH  068%=      5-min Rain = 0
KQU1 111042Z 21009KT 24/18 A3009 RMK A01 T02380176  RH  068%=      5-min Rain = 0
KQU1 111043Z 21009KT 24/18 A3009 RMK A01 T02380176  RH  068%=      5-min Rain = 0
KQU1 111044Z 21010KT 24/18 A301 RMK A01 T02370176  RH  068%=      5-min Rain = 0
KQU1 111045Z 20009KT 24/18 A301 RMK A01 T02380176  RH  068%=      5-min Rain = 0
KQU1 111046Z 20009KT 24/18 A301 RMK A01 T02370176  RH  068%=      5-min Rain = 0
KQU1 111047Z 20009KT 24/18 A301 RMK A01 T02370176  RH  068%=      5-min Rain = 0
KQU1 111048Z 20008KT 24/18 A301 RMK A01 T02370175  RH  068%=      5-min Rain = 0
KQU1 111049Z 20008KT 24/18 A301 RMK A01 T02370175  RH  068%=      5-min Rain = 0
KQU1 111050Z 20009KT 24/18 A301 RMK A01 T02370175  RH  068%=      5-min Rain = 0
KQU1 111051Z 20008KT 24/18 A301 RMK A01 T02360175  RH  068%=      5-min Rain = 0
KQU1 111052Z 20009KT 24/18 A301 RMK A01 T02360175  RH  069%=      5-min Rain = 0
KQU1 111053Z 20008KT 24/18 A301 RMK A01 T02360175  RH  069%=      5-min Rain = 0
KQU1 111054Z 21008KT 24/18 A301 RMK A01 T02360175  RH  069%=      5-min Rain = 0
KQU1 111055Z 21009KT 24/18 A301 RMK A01 T02350175  RH  069%=      5-min Rain = 0
KQU1 111056Z 21009KT 24/18 A301 RMK A01 T02350175  RH  069%=      5-min Rain = 0
KQU1 111057Z 21009KT 24/18 A301 RMK A01 T02350175  RH  069%=      5-min Rain = 0
KQU1 111058Z 21008KT 24/17 A301 RMK A01 T02350174  RH  069%=      5-min Rain = 0
KQU1 111059Z 21009KT 24/17 A301 RMK A01 T02350174  RH  069%=      5-min Rain = 0
KQU1 111100Z 21009KT 24/17 A301 RMK A01 T02350174  RH  069%=      5-min Rain = 0
KQU1 111101Z 21009KT 24/17 A301 RMK A01 T02350174  RH  069%=      5-min Rain = 0
KQU1 111102Z 21008KT 24/17 A301 RMK A01 T02350174  RH  069%=      5-min Rain = 0
KQU1 111103Z 21008KT 23/17 A301 RMK A01 T02340174  RH  069%=      5-min Rain = 0
KQU1 111104Z 21008KT 23/17 A301 RMK A01 T02340174  RH  069%=      5-min Rain = 0
KQU1 111105Z 21008KT 23/17 A301 RMK A01 T02340174  RH  069%=      5-min Rain = 0
KQU1 111106Z 21008KT 23/17 A301 RMK A01 T02340174  RH  069%=      5-min Rain = 0
KQU1 111107Z 21007KT 23/17 A301 RMK A01 T02340174  RH  069%=      5-min Rain = 0
KQU1 111108Z 21007KT 23/17 A301 RMK A01 T02340174  RH  069%=      5-min Rain = 0
KQU1 111109Z 21007KT 23/17 A301 RMK A01 T02340174  RH  069%=      5-min Rain = 0
KQU1 111110Z 21008KT 23/17 A301 RMK A01 T02340174  RH  069%=      5-min Rain = 0
KQU1 111111Z 21008KT 24/17 A301 RMK A01 T02350173  RH  068%=      5-min Rain = 0
KQU1 111112Z 21008KT 24/17 A3009 RMK A01 T02360173  RH  068%=      5-min Rain = 0
KQU1 111113Z 21008KT 24/17 A3009 RMK A01 T02360173  RH  068%=      5-min Rain = 0
KQU1 111114Z 21008KT 24/17 A3009 RMK A01 T02360173  RH  068%=      5-min Rain = 0
KQU1 111115Z 21008KT 24/17 A3009 RMK A01 T02360173  RH  068%=      5-min Rain = 0
KQU1 111116Z 21008KT 24/17 A3009 RMK A01 T02360173  RH  067%=      5-min Rain = 0
KQU1 111117Z 21009KT 24/17 A3009 RMK A01 T02360173  RH  067%=      5-min Rain = 0
KQU1 111118Z 22009KT 24/17 A3009 RMK A01 T02370172  RH  067%=      5-min Rain = 0
KQU1 111119Z 22008KT 24/17 A3009 RMK A01 T02370172  RH  067%=      5-min Rain = 0
KQU1 111120Z 22009KT 24/17 A3009 RMK A01 T02370172  RH  067%=      5-min Rain = 0
KQU1 111121Z 22008KT 24/17 A3009 RMK A01 T02370172  RH  067%=      5-min Rain = 0
KQU1 111122Z 22009KT 24/17 A3009 RMK A01 T02380172  RH  067%=      5-min Rain = 0
KQU1 111123Z 22008KT 24/17 A3009 RMK A01 T02380172  RH  067%=      5-min Rain = 0
KQU1 111124Z 22009KT 24/17 A3009 RMK A01 T02380172  RH  067%=      5-min Rain = 0
KQU1 111125Z 21009KT 24/17 A3009 RMK A01 T02380172  RH  066%=      5-min Rain = 0
KQU1 111126Z 21009KT 24/17 A301 RMK A01 T02380172  RH  066%=      5-min Rain = 0
KQU1 111127Z 22009KT 24/17 A301 RMK A01 T02380172  RH  066%=      5-min Rain = 0
KQU1 111128Z 22008KT 24/17 A301 RMK A01 T02380171  RH  066%=      5-min Rain = 0
KQU1 111129Z 22008KT 24/17 A301 RMK A01 T02370171  RH  067%=      5-min Rain = 0
KQU1 111130Z 22009KT 24/17 A301 RMK A01 T02370171  RH  067%=      5-min Rain = 0
KQU1 111131Z 22009KT 24/17 A301 RMK A01 T02370171  RH  066%=      5-min Rain = 0
KQU1 111132Z 22010KT 24/17 A301 RMK A01 T02370171  RH  066%=      5-min Rain = 0
KQU1 111133Z 23011KT 24/17 A301 RMK A01 T02380171  RH  066%=      5-min Rain = 0
KQU1 111134Z 22010KT 24/17 A301 RMK A01 T02380171  RH  066%=      5-min Rain = 0
KQU1 111135Z 22010KT 24/17 A301 RMK A01 T02390171  RH  066%=      5-min Rain = 0
KQU1 111136Z 22010KT 24/17 A301 RMK A01 T02390171  RH  066%=      5-min Rain = 0
KQU1 111137Z 22010KT 24/17 A301 RMK A01 T02390171  RH  065%=      5-min Rain = 0
KQU1 111138Z 22011KT 24/17 A301 RMK A01 T02390170  RH  065%=      5-min Rain = 0
KQU1 111139Z 22010KT 24/17 A301 RMK A01 T02390170  RH  065%=      5-min Rain = 0
KQU1 111140Z 22010KT 24/17 A301 RMK A01 T02400170  RH  065%=      5-min Rain = 0
KQU1 111141Z 22010KT 24/17 A301 RMK A01 T02400170  RH  065%=      5-min Rain = 0
KQU1 111142Z 22010KT 24/17 A301 RMK A01 T02400170  RH  065%=      5-min Rain = 0
KQU1 111143Z 23011KT 24/17 A301 RMK A01 T02410169  RH  064%=      5-min Rain = 0
KQU1 111144Z 22011KT 24/17 A301 RMK A01 T02410169  RH  064%=      5-min Rain = 0
KQU1 111145Z 22011KT 24/17 A301 RMK A01 T02410169  RH  064%=      5-min Rain = 0
KQU1 111146Z 22010KT 24/17 A301 RMK A01 T02420169  RH  064%=      5-min Rain = 0
KQU1 111147Z 22011KT 24/17 A301 RMK A01 T02420169  RH  064%=      5-min Rain = 0
KQU1 111148Z 22011KT 24/17 A301 RMK A01 T02420168  RH  064%=      5-min Rain = 0
KQU1 111149Z 23011KT 24/17 A301 RMK A01 T02420168  RH  063%=      5-min Rain = 0
KQU1 111150Z 22010KT 24/17 A301 RMK A01 T02420168  RH  063%=      5-min Rain = 0
KQU1 111151Z 23010KT 24/17 A301 RMK A01 T02420168  RH  063%=      5-min Rain = 0
KQU1 111152Z 22011KT 24/17 A301 RMK A01 T02420168  RH  063%=      5-min Rain = 0
KQU1 111153Z 22010KT 24/17 A301 RMK A01 T02420168  RH  063%=      5-min Rain = 0
KQU1 111154Z 22010KT 24/17 A301 RMK A01 T02420168  RH  063%=      5-min Rain = 0
KQU1 111155Z 22010KT 24/17 A301 RMK A01 T02420168  RH  063%=      5-min Rain = 0
KQU1 111156Z 22011KT 24/17 A301 RMK A01 T02420168  RH  063%=      5-min Rain = 0
KQU1 111157Z 22010KT 24/17 A301 RMK A01 T02420168  RH  063%=      5-min Rain = 0
KQU1 111158Z 23011KT 24/17 A301 RMK A01 T02420168  RH  063%=      5-min Rain = 0
KQU1 111159Z 23012KT 24/17 A301 RMK A01 T02430168  RH  063%=      5-min Rain = 0
KQU1 111200Z 23012KT 24/17 A301 RMK A01 T02430168  RH  063%=      5-min Rain = 0
KQU1 111201Z 22011KT 24/17 A301 RMK A01 T02430168  RH  063%=      5-min Rain = 0
KQU1 111202Z 23011KT 24/17 A301 RMK A01 T02430168  RH  063%=      5-min Rain = 0
KQU1 111203Z 23010KT 24/17 A301 RMK A01 T02430168  RH  063%=      5-min Rain = 0
KQU1 111204Z 23012KT 24/17 A3011 RMK A01 T02430168  RH  063%=      5-min Rain = 0
KQU1 111205Z 23011KT 24/17 A3011 RMK A01 T02440168  RH  063%=      5-min Rain = 0
KQU1 111206Z 23010KT 24/17 A3011 RMK A01 T02430168  RH  063%=      5-min Rain = 0
KQU1 111207Z 23011KT 24/17 A3011 RMK A01 T02440168  RH  063%=      5-min Rain = 0
KQU1 111208Z 23010KT 24/17 A3011 RMK A01 T02440168  RH  063%=      5-min Rain = 0
KQU1 111209Z 22010KT 24/17 A3011 RMK A01 T02440168  RH  063%=      5-min Rain = 0
KQU1 111210Z 23010KT 24/17 A3011 RMK A01 T02440168  RH  063%=      5-min Rain = 0
KQU1 111211Z 23011KT 24/17 A3011 RMK A01 T02440168  RH  063%=      5-min Rain = 0
KQU1 111212Z 23010KT 24/17 A3011 RMK A01 T02440168  RH  063%=      5-min Rain = 0
KQU1 111213Z 22010KT 24/17 A3011 RMK A01 T02440168  RH  063%=      5-min Rain = 0
KQU1 111214Z 23010KT 24/17 A3011 RMK A01 T02440168  RH  063%=      5-min Rain = 0
KQU1 111215Z 23009KT 24/17 A3011 RMK A01 T02440168  RH  062%=      5-min Rain = 0
KQU1 111216Z 23011KT 24/17 A3011 RMK A01 T02440168  RH  062%=      5-min Rain = 0
KQU1 111217Z 23011KT 25/17 A3011 RMK A01 T02450168  RH  062%=      5-min Rain = 0
KQU1 111218Z 23009KT 25/17 A3011 RMK A01 T02450168  RH  062%=      5-min Rain = 0
KQU1 111219Z 23010KT 25/17 A3011 RMK A01 T02450168  RH  062%=      5-min Rain = 0
KQU1 111220Z 23010KT 25/17 A3011 RMK A01 T02450168  RH  062%=      5-min Rain = 0
KQU1 111221Z 23010KT 25/17 A3011 RMK A01 T02460168  RH  062%=      5-min Rain = 0
KQU1 111222Z 23010KT 25/17 A3011 RMK A01 T02460168  RH  062%=      5-min Rain = 0
KQU1 111223Z 23010KT 25/17 A3011 RMK A01 T02460168  RH  062%=      5-min Rain = 0
KQU1 111224Z 23009KT 25/17 A3011 RMK A01 T02470168  RH  062%=      5-min Rain = 0
KQU1 111225Z 24009KT 25/17 A3011 RMK A01 T02470168  RH  062%=      5-min Rain = 0
KQU1 111226Z 23008KT 25/17 A3011 RMK A01 T02470168  RH  061%=      5-min Rain = 0
KQU1 111227Z 23010KT 25/17 A3011 RMK A01 T02470168  RH  061%=      5-min Rain = 0
KQU1 111228Z 23009KT 25/17 A3011 RMK A01 T02480168  RH  061%=      5-min Rain = 0
KQU1 111229Z 23009KT 25/17 A3011 RMK A01 T02480168  RH  061%=      5-min Rain = 0
KQU1 111230Z 23008KT 25/17 A3011 RMK A01 T02490168  RH  061%=      5-min Rain = 0
KQU1 111231Z 23009KT 25/17 A3011 RMK A01 T02490168  RH  061%=      5-min Rain = 0
KQU1 111232Z 23008KT 25/17 A3011 RMK A01 T02500169  RH  060%=      5-min Rain = 0
KQU1 111233Z 23009KT 25/17 A3011 RMK A01 T02510169  RH  060%=      5-min Rain = 0
KQU1 111234Z 22009KT 25/17 A3011 RMK A01 T02520168  RH  060%=      5-min Rain = 0
KQU1 111235Z 23009KT 25/17 A3011 RMK A01 T02530168  RH  059%=      5-min Rain = 0
KQU1 111236Z 22009KT 25/17 A3011 RMK A01 T02530168  RH  059%=      5-min Rain = 0
KQU1 111237Z 22009KT 25/17 A3011 RMK A01 T02530168  RH  059%=      5-min Rain = 0
KQU1 111238Z 22009KT 25/17 A3011 RMK A01 T02530168  RH  059%=      5-min Rain = 0
KQU1 111239Z 22009KT 25/17 A3011 RMK A01 T02530168  RH  059%=      5-min Rain = 0
KQU1 111240Z 22009KT 25/17 A3011 RMK A01 T02540168  RH  059%=      5-min Rain = 0
KQU1 111241Z 22010KT 25/17 A3011 RMK A01 T02540167  RH  058%=      5-min Rain = 0
KQU1 111242Z 22008KT 26/17 A3011 RMK A01 T02550168  RH  059%=      5-min Rain = 0
KQU1 111243Z 21008KT 26/17 A3011 RMK A01 T02560168  RH  058%=      5-min Rain = 0
KQU1 111244Z 21008KT 26/17 A3011 RMK A01 T02560168  RH  058%=      5-min Rain = 0
KQU1 111245Z 21008KT 26/17 A3011 RMK A01 T02560168  RH  058%=      5-min Rain = 0
KQU1 111246Z 21008KT 26/17 A3011 RMK A01 T02570167  RH  058%=      5-min Rain = 0
KQU1 111247Z 21009KT 26/17 A3011 RMK A01 T02560167  RH  058%=      5-min Rain = 0
KQU1 111248Z 20008KT 26/17 A3012 RMK A01 T02560168  RH  058%=      5-min Rain = 0
KQU1 111249Z 21009KT 26/17 A3012 RMK A01 T02550168  RH  059%=      5-min Rain = 0
KQU1 111250Z 21008KT 25/17 A3012 RMK A01 T02540167  RH  059%=      5-min Rain = 0
KQU1 111251Z 20008KT 25/17 A3012 RMK A01 T02540168  RH  059%=      5-min Rain = 0
KQU1 111252Z 21009KT 25/17 A3012 RMK A01 T02530167  RH  059%=      5-min Rain = 0
KQU1 111253Z 20007KT 25/17 A3012 RMK A01 T02530168  RH  059%=      5-min Rain = 0
KQU1 111254Z 20007KT 25/17 A3012 RMK A01 T02530168  RH  059%=      5-min Rain = 0
KQU1 111255Z 21008KT 25/17 A3012 RMK A01 T02530168  RH  059%=      5-min Rain = 0
KQU1 111256Z 20008KT 25/17 A3012 RMK A01 T02530168  RH  059%=      5-min Rain = 0
KQU1 111257Z 20008KT 25/17 A3012 RMK A01 T02530168  RH  059%=      5-min Rain = 0
KQU1 111258Z 21009KT 25/17 A3012 RMK A01 T02540167  RH  059%=      5-min Rain = 0
KQU1 111259Z 19007KT 25/17 A3012 RMK A01 T02540168  RH  059%=      5-min Rain = 0
KQU1 111300Z 20007KT 25/17 A3012 RMK A01 T02540168  RH  059%=      5-min Rain = 0
KQU1 111301Z 19006KT 26/17 A3012 RMK A01 T02550168  RH  059%=      5-min Rain = 0
KQU1 111302Z 20006KT 26/17 A3012 RMK A01 T02550168  RH  059%=      5-min Rain = 0
KQU1 111303Z 20006KT 26/17 A3012 RMK A01 T02550168  RH  059%=      5-min Rain = 0
KQU1 111304Z 19007KT 26/17 A3012 RMK A01 T02550169  RH  059%=      5-min Rain = 0
KQU1 111305Z 19006KT 26/17 A3012 RMK A01 T02550169  RH  059%=      5-min Rain = 0
KQU1 111306Z 19007KT 26/17 A3012 RMK A01 T02550169  RH  059%=      5-min Rain = 0
KQU1 111307Z 19007KT 26/17 A3012 RMK A01 T02550169  RH  059%=      5-min Rain = 0
KQU1 111308Z 19007KT 26/17 A3012 RMK A01 T02550168  RH  059%=      5-min Rain = 0
KQU1 111309Z 19007KT 26/17 A3012 RMK A01 T02550169  RH  059%=      5-min Rain = 0
KQU1 111310Z 19007KT 26/17 A3012 RMK A01 T02550168  RH  059%=      5-min Rain = 0
KQU1 111311Z 18006KT 26/17 A3012 RMK A01 T02550169  RH  059%=      5-min Rain = 0
KQU1 111312Z 19008KT 26/17 A3012 RMK A01 T02560169  RH  059%=      5-min Rain = 0
KQU1 111313Z 19007KT 26/17 A3013 RMK A01 T02550167  RH  058%=      5-min Rain = 0
KQU1 111314Z 19007KT 26/17 A3013 RMK A01 T02550168  RH  059%=      5-min Rain = 0
KQU1 111315Z 19006KT 26/17 A3013 RMK A01 T02550169  RH  059%=      5-min Rain = 0
KQU1 111316Z 19005KT 26/17 A3013 RMK A01 T02550169  RH  059%=      5-min Rain = 0
KQU1 111317Z 19005KT 26/17 A3013 RMK A01 T02560169  RH  059%=      5-min Rain = 0
KQU1 111318Z 19005KT 26/17 A3013 RMK A01 T02560168  RH  058%=      5-min Rain = 0
KQU1 111319Z 19005KT 26/17 A3013 RMK A01 T02560170  RH  059%=      5-min Rain = 0
KQU1 111320Z 19006KT 26/17 A3013 RMK A01 T02560169  RH  059%=      5-min Rain = 0
KQU1 111321Z 19005KT 26/17 A3013 RMK A01 T02570169  RH  059%=      5-min Rain = 0
KQU1 111322Z 19005KT 26/17 A3013 RMK A01 T02570169  RH  058%=      5-min Rain = 0
KQU1 111323Z 19005KT 26/17 A3013 RMK A01 T02570169  RH  058%=      5-min Rain = 0
KQU1 111324Z 19005KT 26/17 A3013 RMK A01 T02570169  RH  058%=      5-min Rain = 0
KQU1 111325Z 19005KT 26/17 A3013 RMK A01 T02570170  RH  059%=      5-min Rain = 0
KQU1 111326Z 18005KT 26/17 A3013 RMK A01 T02570169  RH  058%=      5-min Rain = 0
KQU1 111327Z 18006KT 26/17 A3013 RMK A01 T02570169  RH  058%=      5-min Rain = 0
KQU1 111328Z 18005KT 26/17 A3013 RMK A01 T02570169  RH  058%=      5-min Rain = 0
KQU1 111329Z 19004KT 26/17 A3013 RMK A01 T02580171  RH  059%=      5-min Rain = 0
KQU1 111330Z 18004KT 26/17 A3013 RMK A01 T02590170  RH  058%=      5-min Rain = 0
KQU1 111331Z 19005KT 26/17 A3013 RMK A01 T02610170  RH  057%=      5-min Rain = 0
KQU1 111332Z 18005KT 26/17 A3013 RMK A01 T02620169  RH  056%=      5-min Rain = 0
KQU1 111333Z 18005KT 26/17 A3013 RMK A01 T02630169  RH  056%=      5-min Rain = 0
KQU1 111334Z 19006KT 26/17 A3013 RMK A01 T02640167  RH  055%=      5-min Rain = 0
KQU1 111335Z 19005KT 26/17 A3013 RMK A01 T02640167  RH  055%=      5-min Rain = 0
KQU1 111336Z 18006KT 27/17 A3013 RMK A01 T02650165  RH  054%=      5-min Rain = 0
KQU1 111337Z 19006KT 27/17 A3013 RMK A01 T02660168  RH  055%=      5-min Rain = 0
KQU1 111338Z 20006KT 27/17 A3013 RMK A01 T02670165  RH  053%=      5-min Rain = 0
KQU1 111339Z 20006KT 27/16 A3013 RMK A01 T02680163  RH  053%=      5-min Rain = 0
KQU1 111340Z 19006KT 27/16 A3013 RMK A01 T02690164  RH  053%=      5-min Rain = 0
KQU1 111341Z 19004KT 27/16 A3013 RMK A01 T02690163  RH  052%=      5-min Rain = 0
KQU1 111342Z 19007KT 27/16 A3013 RMK A01 T02690163  RH  052%=      5-min Rain = 0
KQU1 111343Z 20007KT 27/16 A3013 RMK A01 T02710162  RH  051%=      5-min Rain = 0
KQU1 111344Z 20007KT 27/16 A3013 RMK A01 T02710159  RH  050%=      5-min Rain = 0
KQU1 111345Z 21008KT 27/16 A3013 RMK A01 T02720159  RH  050%=      5-min Rain = 0
KQU1 111346Z 20010KT 27/16 A3013 RMK A01 T02730158  RH  049%=      5-min Rain = 0
KQU1 111347Z 20010KT 27/16 A3013 RMK A01 T02730156  RH  049%=      5-min Rain = 0
KQU1 111348Z 21011KT 27/15 A3013 RMK A01 T02740153  RH  048%=      5-min Rain = 0
KQU1 111349Z 21009KT 27/15 A3013 RMK A01 T02740154  RH  048%=      5-min Rain = 0
KQU1 111350Z 20009KT 27/16 A3013 RMK A01 T02740155  RH  048%=      5-min Rain = 0
KQU1 111351Z 20011KT 28/15 A3013 RMK A01 T02760154  RH  047%=      5-min Rain = 0
KQU1 111352Z 22012KT 28/15 A3013 RMK A01 T02770152  RH  046%=      5-min Rain = 0
KQU1 111353Z 21009KT 28/15 A3013 RMK A01 T02780153  RH  047%=      5-min Rain = 0
KQU1 111354Z 19010KT 28/15 A3013 RMK A01 T02790153  RH  046%=      5-min Rain = 0
KQU1 111355Z 20012KT 28/15 A3013 RMK A01 T02800152  RH  046%=      5-min Rain = 0
KQU1 111356Z 20010KT 28/15 A3013 RMK A01 T02810153  RH  046%=      5-min Rain = 0
KQU1 111357Z 21012KT 28/15 A3013 RMK A01 T02810151  RH  045%=      5-min Rain = 0
KQU1 111358Z 22008KT 28/15 A3013 RMK A01 T02810154  RH  046%=      5-min Rain = 0
KQU1 111359Z 21009KT 28/15 A3013 RMK A01 T02840153  RH  045%=      5-min Rain = 0
KQU1 111400Z 19011KT 28/15 A3013 RMK A01 T02840151  RH  044%=      5-min Rain = 0
KQU1 111401Z 19011KT 28/15 A3013 RMK A01 T02830151  RH  045%=      5-min Rain = 0
KQU1 111402Z 19011KT 28/15 A3013 RMK A01 T02820153  RH  045%=      5-min Rain = 0
KQU1 111403Z 20014KT 28/15 A3013 RMK A01 T02830151  RH  045%=      5-min Rain = 0
KQU1 111404Z 20012KT 28/15 A3013 RMK A01 T02820150  RH  045%=      5-min Rain = 0
KQU1 111405Z 20010KT 28/15 A3013 RMK A01 T02830152  RH  045%=      5-min Rain = 0
KQU1 111406Z 19011KT 28/15 A3013 RMK A01 T02830151  RH  045%=      5-min Rain = 0
KQU1 111407Z 20009KT 28/15 A3013 RMK A01 T02840153  RH  045%=      5-min Rain = 0
KQU1 111408Z 20011KT 29/15 A3014 RMK A01 T02860153  RH  044%=      5-min Rain = 0
KQU1 111409Z 21011KT 29/15 A3014 RMK A01 T02880150  RH  043%=      5-min Rain = 0
KQU1 111410Z 21012KT 29/15 A3014 RMK A01 T02880151  RH  043%=      5-min Rain = 0
KQU1 111411Z 22009KT 29/15 A3014 RMK A01 T02890152  RH  043%=      5-min Rain = 0
KQU1 111412Z 21009KT 29/15 A3014 RMK A01 T02910152  RH  043%=      5-min Rain = 0
KQU1 111413Z 20010KT 29/15 A3014 RMK A01 T02930152  RH  042%=      5-min Rain = 0
KQU1 111414Z 20012KT 29/15 A3014 RMK A01 T02920150  RH  042%=      5-min Rain = 0
KQU1 111415Z 19014KT 29/15 A3014 RMK A01 T02910149  RH  042%=      5-min Rain = 0
KQU1 111416Z 20012KT 29/15 A3014 RMK A01 T02890148  RH  042%=      5-min Rain = 0
KQU1 111417Z 19011KT 29/15 A3014 RMK A01 T02860150  RH  043%=      5-min Rain = 0
KQU1 111418Z 20012KT 29/15 A3014 RMK A01 T02860151  RH  044%=      5-min Rain = 0
KQU1 111419Z 20012KT 29/15 A3014 RMK A01 T02860150  RH  044%=      5-min Rain = 0
KQU1 111420Z 20013KT 28/15 A3014 RMK A01 T02840150  RH  044%=      5-min Rain = 0
KQU1 111421Z 20014KT 28/15 A3014 RMK A01 T02830150  RH  044%=      5-min Rain = 0
KQU1 111422Z 20014KT 28/15 A3014 RMK A01 T02810150  RH  045%=      5-min Rain = 0
KQU1 111423Z 20012KT 28/15 A3014 RMK A01 T02810151  RH  045%=      5-min Rain = 0
KQU1 111424Z 21012KT 28/15 A3014 RMK A01 T02820151  RH  045%=      5-min Rain = 0
KQU1 111425Z 20012KT 28/15 A3014 RMK A01 T02820152  RH  045%=      5-min Rain = 0
KQU1 111426Z 20010KT 28/15 A3014 RMK A01 T02830152  RH  045%=      5-min Rain = 0
KQU1 111427Z 20010KT 28/15 A3014 RMK A01 T02840152  RH  045%=      5-min Rain = 0
KQU1 111428Z 20011KT 29/15 A3014 RMK A01 T02850152  RH  044%=      5-min Rain = 0
KQU1 111429Z 20011KT 29/15 A3014 RMK A01 T02850151  RH  044%=      5-min Rain = 0
KQU1 111430Z 22012KT 28/15 A3014 RMK A01 T02830151  RH  045%=      5-min Rain = 0
KQU1 111431Z 22012KT 28/15 A3014 RMK A01 T02820152  RH  045%=      5-min Rain = 0
KQU1 111432Z 21011KT 28/15 A3014 RMK A01 T02810152  RH  045%=      5-min Rain = 0
KQU1 111433Z 21009KT 28/15 A3014 RMK A01 T02810153  RH  046%=      5-min Rain = 0
KQU1 111434Z 22009KT 28/15 A3014 RMK A01 T02820153  RH  046%=      5-min Rain = 0
KQU1 111435Z 21011KT 28/15 A3014 RMK A01 T02820153  RH  045%=      5-min Rain = 0
KQU1 111436Z 21009KT 28/15 A3014 RMK A01 T02820154  RH  046%=      5-min Rain = 0
KQU1 111437Z 21012KT 28/15 A3014 RMK A01 T02830154  RH  045%=      5-min Rain = 0
KQU1 111438Z 20011KT 28/15 A3014 RMK A01 T02820153  RH  045%=      5-min Rain = 0
KQU1 111439Z 19011KT 28/15 A3014 RMK A01 T02820153  RH  046%=      5-min Rain = 0
KQU1 111440Z 19011KT 28/15 A3014 RMK A01 T02810153  RH  046%=      5-min Rain = 0
KQU1 111441Z 20012KT 28/15 A3014 RMK A01 T02820153  RH  046%=      5-min Rain = 0
KQU1 111442Z 20012KT 28/15 A3014 RMK A01 T02820152  RH  045%=      5-min Rain = 0
KQU1 111443Z 19012KT 28/15 A3014 RMK A01 T02810154  RH  046%=      5-min Rain = 0
KQU1 111444Z 19012KT 28/15 A3014 RMK A01 T02820153  RH  045%=      5-min Rain = 0
KQU1 111445Z 19012KT 28/15 A3014 RMK A01 T02830154  RH  045%=      5-min Rain = 0
KQU1 111446Z 20010KT 28/15 A3014 RMK A01 T02830154  RH  046%=      5-min Rain = 0
KQU1 111447Z 20012KT 28/15 A3014 RMK A01 T02820154  RH  046%=      5-min Rain = 0
KQU1 111448Z 20011KT 28/15 A3014 RMK A01 T02810154  RH  046%=      5-min Rain = 0
KQU1 111449Z 20011KT 28/16 A3014 RMK A01 T02810155  RH  046%=      5-min Rain = 0
KQU1 111450Z 20011KT 28/16 A3014 RMK A01 T02810155  RH  046%=      5-min Rain = 0
KQU1 111451Z 20009KT 28/16 A3014 RMK A01 T02810156  RH  047%=      5-min Rain = 0
KQU1 111452Z 20010KT 28/16 A3014 RMK A01 T02810156  RH  047%=      5-min Rain = 0
KQU1 111453Z 20010KT 28/16 A3014 RMK A01 T02810156  RH  047%=      5-min Rain = 0
KQU1 111454Z 20012KT 28/16 A3014 RMK A01 T02820156  RH  046%=      5-min Rain = 0
KQU1 111455Z 20011KT 28/16 A3014 RMK A01 T02830156  RH  046%=      5-min Rain = 0
KQU1 111456Z 21010KT 28/16 A3014 RMK A01 T02840156  RH  046%=      5-min Rain = 0
KQU1 111457Z 20008KT 29/16 A3014 RMK A01 T02870158  RH  045%=      5-min Rain = 0
KQU1 111458Z 19010KT 29/16 A3014 RMK A01 T02900155  RH  044%=      5-min Rain = 0
KQU1 111459Z 19012KT 29/15 A3014 RMK A01 T02930153  RH  042%=      5-min Rain = 0
KQU1 111500Z 19014KT 30/15 A3014 RMK A01 T02950151  RH  042%=      5-min Rain = 0
KQU1 111501Z 19013KT 29/15 A3014 RMK A01 T02940150  RH  042%=      5-min Rain = 0
KQU1 111502Z 20010KT 30/15 A3014 RMK A01 T02950152  RH  042%=      5-min Rain = 0
KQU1 111503Z 19013KT 30/15 A3014 RMK A01 T02960152  RH  042%=      5-min Rain = 0
KQU1 111504Z 19015KT 30/15 A3014 RMK A01 T02970152  RH  041%=      5-min Rain = 0
KQU1 111505Z 21011KT 30/15 A3014 RMK A01 T02970152  RH  041%=      5-min Rain = 0
KQU1 111506Z 20010KT 30/15 A3014 RMK A01 T02960152  RH  041%=      5-min Rain = 0
KQU1 111507Z 19013KT 30/15 A3014 RMK A01 T02950153  RH  042%=      5-min Rain = 0
KQU1 111508Z 18015KT 30/15 A3014 RMK A01 T02960152  RH  042%=      5-min Rain = 0
KQU1 111509Z 19015KT 30/15 A3014 RMK A01 T02970153  RH  042%=      5-min Rain = 0
KQU1 111510Z 19014KT 30/15 A3014 RMK A01 T02970151  RH  041%=      5-min Rain = 0
KQU1 111511Z 19013KT 30/15 A3014 RMK A01 T02970153  RH  042%=      5-min Rain = 0
KQU1 111512Z 20013KT 30/15 A3014 RMK A01 T02970153  RH  041%=      5-min Rain = 0
KQU1 111513Z 19013KT 30/15 A3014 RMK A01 T02980154  RH  042%=      5-min Rain = 0
KQU1 111514Z 20012KT 30/15 A3014 RMK A01 T02990153  RH  041%=      5-min Rain = 0
KQU1 111515Z 20013KT 30/15 A3014 RMK A01 T02990153  RH  041%=      5-min Rain = 0
KQU1 111516Z 19014KT 30/15 A3014 RMK A01 T03000153  RH  041%=      5-min Rain = 0
KQU1 111517Z 19014KT 30/15 A3014 RMK A01 T03000152  RH  041%=      5-min Rain = 0
KQU1 111518Z 21015KT 30/15 A3013 RMK A01 T03000152  RH  041%=      5-min Rain = 0
KQU1 111519Z 21013KT 30/15 A3014 RMK A01 T02990152  RH  041%=      5-min Rain = 0
KQU1 111520Z 19014KT 30/15 A3014 RMK A01 T02990153  RH  041%=      5-min Rain = 0
KQU1 111521Z 20013KT 30/15 A3014 RMK A01 T02990154  RH  041%=      5-min Rain = 0
KQU1 111522Z 20015KT 30/15 A3014 RMK A01 T03000151  RH  040%=      5-min Rain = 0
KQU1 111523Z 21013KT 30/15 A3014 RMK A01 T02990152  RH  041%=      5-min Rain = 0
KQU1 111524Z 21011KT 30/15 A3014 RMK A01 T03000154  RH  041%=      5-min Rain = 0
KQU1 111525Z 21011KT 30/15 A3014 RMK A01 T03020153  RH  040%=      5-min Rain = 0
KQU1 111526Z 22012KT 30/15 A3013 RMK A01 T03020150  RH  040%=      5-min Rain = 0
KQU1 111527Z 23012KT 30/15 A3013 RMK A01 T03010151  RH  040%=      5-min Rain = 0
KQU1 111528Z 19011KT 30/15 A3013 RMK A01 T03000151  RH  040%=      5-min Rain = 0
KQU1 111529Z 19011KT 30/15 A3013 RMK A01 T03000153  RH  041%=      5-min Rain = 0
KQU1 111530Z 20010KT 30/15 A3013 RMK A01 T03030153  RH  040%=      5-min Rain = 0
KQU1 111531Z 18011KT 31/15 A3013 RMK A01 T03060149  RH  039%=      5-min Rain = 0
KQU1 111532Z 18012KT 31/15 A3013 RMK A01 T03080151  RH  039%=      5-min Rain = 0
KQU1 111533Z 19013KT 31/15 A3013 RMK A01 T03080149  RH  038%=      5-min Rain = 0
KQU1 111534Z 18011KT 31/15 A3013 RMK A01 T03070150  RH  039%=      5-min Rain = 0
KQU1 111535Z 19012KT 31/15 A3013 RMK A01 T03080152  RH  039%=      5-min Rain = 0
KQU1 111536Z 19014KT 31/15 A3013 RMK A01 T03080150  RH  038%=      5-min Rain = 0
KQU1 111537Z 18014KT 31/15 A3013 RMK A01 T03090151  RH  038%=      5-min Rain = 0
KQU1 111538Z 18015KT 31/15 A3013 RMK A01 T03110150  RH  038%=      5-min Rain = 0
KQU1 111539Z 18014KT 31/15 A3013 RMK A01 T03090148  RH  038%=      5-min Rain = 0
KQU1 111540Z 18012KT 31/15 A3013 RMK A01 T03090147  RH  037%=      5-min Rain = 0
KQU1 111541Z 18012KT 31/15 A3013 RMK A01 T03080145  RH  037%=      5-min Rain = 0
KQU1 111542Z 18011G17KT 31/15 A3013 RMK A01 T03080145  RH  037%=      5-min Rain = 0
KQU1 111543Z 20015KT 31/14 A3013 RMK A01 T03090142  RH  036%=      5-min Rain = 0
KQU1 111544Z 18012KT 31/14 A3013 RMK A01 T03070144  RH  037%=      5-min Rain = 0
KQU1 111545Z 20010KT 31/14 A3013 RMK A01 T03070144  RH  037%=      5-min Rain = 0
KQU1 111546Z 21011KT 31/14 A3013 RMK A01 T03080140  RH  036%=      5-min Rain = 0
KQU1 111547Z 20011KT 31/14 A3013 RMK A01 T03070140  RH  036%=      5-min Rain = 0
KQU1 111548Z 19012KT 31/15 A3013 RMK A01 T03070146  RH  037%=      5-min Rain = 0
KQU1 111549Z 22014G20KT 31/15 A3013 RMK A01 T03080146  RH  037%=      5-min Rain = 0
KQU1 111550Z 22012KT 31/15 A3013 RMK A01 T03080147  RH  037%=      5-min Rain = 0
KQU1 111551Z 22011KT 31/14 A3013 RMK A01 T03090144  RH  037%=      5-min Rain = 0
KQU1 111552Z 23013KT 31/14 A3013 RMK A01 T03090144  RH  037%=      5-min Rain = 0
KQU1 111553Z 23012KT 31/14 A3013 RMK A01 T03090142  RH  036%=      5-min Rain = 0
KQU1 111554Z 21011KT 31/14 A3013 RMK A01 T03120144  RH  036%=      5-min Rain = 0
KQU1 111555Z 19012KT 31/14 A3013 RMK A01 T03130141  RH  035%=      5-min Rain = 0
KQU1 111556Z 19009KT 31/14 A3013 RMK A01 T03130142  RH  035%=      5-min Rain = 0
KQU1 111557Z 18009KT 31/15 A3013 RMK A01 T03140145  RH  036%=      5-min Rain = 0
KQU1 111558Z 18015KT 32/15 A3013 RMK A01 T03160146  RH  036%=      5-min Rain = 0
KQU1 111559Z 18010KT 32/14 A3013 RMK A01 T03150143  RH  035%=      5-min Rain = 0
KQU1 111600Z 19009KT 31/14 A3013 RMK A01 T03140144  RH  036%=      5-min Rain = 0
KQU1 111601Z 22010G16KT 31/14 A3013 RMK A01 T03130142  RH  035%=      5-min Rain = 0
KQU1 111602Z 23012KT 31/14 A3013 RMK A01 T03110139  RH  035%=      5-min Rain = 0
KQU1 111603Z 22013KT 31/14 A3013 RMK A01 T03130140  RH  035%=      5-min Rain = 0
KQU1 111604Z 21011KT 31/14 A3013 RMK A01 T03130137  RH  034%=      5-min Rain = 0
KQU1 111605Z 19015KT 31/14 A3013 RMK A01 T03140139  RH  035%=      5-min Rain = 0
KQU1 111606Z 19014KT 31/14 A3013 RMK A01 T03140136  RH  034%=      5-min Rain = 0
KQU1 111607Z 21013KT 31/14 A3013 RMK A01 T03130138  RH  035%=      5-min Rain = 0
KQU1 111608Z 21013KT 31/14 A3013 RMK A01 T03120135  RH  034%=      5-min Rain = 0
KQU1 111609Z 20009KT 31/13 A3013 RMK A01 T03130134  RH  034%=      5-min Rain = 0
KQU1 111610Z 23010KT 31/14 A3013 RMK A01 T03130143  RH  036%=      5-min Rain = 0
KQU1 111611Z 23008KT 31/14 A3013 RMK A01 T03140141  RH  035%=      5-min Rain = 0
KQU1 111612Z 22011KT 31/14 A3013 RMK A01 T03140136  RH  034%=      5-min Rain = 0
KQU1 111613Z 22008KT 31/14 A3013 RMK A01 T03130135  RH  034%=      5-min Rain = 0
KQU1 111614Z 20012G17KT 31/13 A3013 RMK A01 T03140134  RH  034%=      5-min Rain = 0
KQU1 111615Z 20010KT 32/13 A3013 RMK A01 T03150129  RH  032%=      5-min Rain = 0
KQU1 111616Z 21008KT 31/13 A3013 RMK A01 T03140127  RH  032%=      5-min Rain = 0
KQU1 111617Z 18013KT 31/13 A3013 RMK A01 T03140130  RH  033%=      5-min Rain = 0
KQU1 111618Z 18011G16KT 31/13 A3013 RMK A01 T03140132  RH  033%=      5-min Rain = 0
KQU1 111619Z 18010G15KT 31/14 A3013 RMK A01 T03140136  RH  034%=      5-min Rain = 0
KQU1 111620Z 18008KT 31/14 A3013 RMK A01 T03130137  RH  034%=      5-min Rain = 0
KQU1 111621Z 21010KT 31/14 A3013 RMK A01 T03130135  RH  034%=      5-min Rain = 0
KQU1 111622Z 22012KT 32/14 A3013 RMK A01 T03150138  RH  034%=      5-min Rain = 0
KQU1 111623Z 23009KT 32/14 A3013 RMK A01 T03150139  RH  034%=      5-min Rain = 0
KQU1 111624Z 21010KT 32/14 A3013 RMK A01 T03150140  RH  035%=      5-min Rain = 0
KQU1 111625Z 20008KT 32/14 A3013 RMK A01 T03150139  RH  034%=      5-min Rain = 0
KQU1 111626Z 20005KT 32/14 A3013 RMK A01 T03150139  RH  034%=      5-min Rain = 0
KQU1 111627Z 23008KT 32/14 A3013 RMK A01 T03170140  RH  034%=      5-min Rain = 0
KQU1 111628Z 20010KT 32/14 A3013 RMK A01 T03170137  RH  033%=      5-min Rain = 0
KQU1 111629Z 18012KT 32/12 A3013 RMK A01 T03200123  RH  030%=      5-min Rain = 0
KQU1 111630Z 17011KT 32/13 A3013 RMK A01 T03200126  RH  031%=      5-min Rain = 0
KQU1 111631Z 18009KT 32/13 A3013 RMK A01 T03190130  RH  032%=      5-min Rain = 0
KQU1 111632Z 18011G16KT 32/13 A3013 RMK A01 T03190131  RH  032%=      5-min Rain = 0
KQU1 111633Z 19010KT 32/14 A3013 RMK A01 T03180135  RH  033%=      5-min Rain = 0
KQU1 111634Z 22009KT 32/13 A3012 RMK A01 T03170134  RH  033%=      5-min Rain = 0
KQU1 111635Z 22008KT 32/14 A3012 RMK A01 T03170137  RH  033%=      5-min Rain = 0
KQU1 111636Z 21008KT 32/14 A3012 RMK A01 T03160137  RH  034%=      5-min Rain = 0
KQU1 111637Z 22007KT 32/14 A3012 RMK A01 T03160138  RH  034%=      5-min Rain = 0
KQU1 111638Z 22004KT 32/14 A3012 RMK A01 T03150136  RH  034%=      5-min Rain = 0
KQU1 111639Z 19008KT 32/14 A3012 RMK A01 T03160139  RH  034%=      5-min Rain = 0
KQU1 111640Z 17011KT 32/13 A3012 RMK A01 T03180133  RH  032%=      5-min Rain = 0
KQU1 111641Z 16009G15KT 32/13 A3012 RMK A01 T03180131  RH  032%=      5-min Rain = 0
KQU1 111642Z 16013KT 32/13 A3012 RMK A01 T03220133  RH  032%=      5-min Rain = 0
KQU1 111643Z 17009KT 32/13 A3012 RMK A01 T03230132  RH  031%=      5-min Rain = 0
KQU1 111644Z 20014KT 32/13 A3012 RMK A01 T03230125  RH  030%=      5-min Rain = 0
KQU1 111645Z 20011KT 32/12 A3012 RMK A01 T03210123  RH  030%=      5-min Rain = 0
KQU1 111646Z 21010KT 32/13 A3012 RMK A01 T03200128  RH  031%=      5-min Rain = 0
KQU1 111647Z 19008KT 32/13 A3012 RMK A01 T03220131  RH  031%=      5-min Rain = 0
KQU1 111648Z 16008G14KT 33/13 A3012 RMK A01 T03250131  RH  031%=      5-min Rain = 0
KQU1 111649Z 15013KT 33/13 A3012 RMK A01 T03280132  RH  030%=      5-min Rain = 0
KQU1 111650Z 15013KT 33/13 A3012 RMK A01 T03280131  RH  030%=      5-min Rain = 0
KQU1 111651Z 19012KT 33/13 A3012 RMK A01 T03290130  RH  030%=      5-min Rain = 0
KQU1 111652Z 20010KT 33/13 A3012 RMK A01 T03280130  RH  030%=      5-min Rain = 0
KQU1 111653Z 19010KT 33/13 A3012 RMK A01 T03300133  RH  030%=      5-min Rain = 0
KQU1 111654Z 19009KT 33/13 A3012 RMK A01 T03290134  RH  031%=      5-min Rain = 0
KQU1 111655Z 18014G19KT 33/13 A3012 RMK A01 T03280134  RH  031%=      5-min Rain = 0
KQU1 111656Z 18015KT 33/13 A3012 RMK A01 T03280131  RH  030%=      5-min Rain = 0
KQU1 111657Z 16013KT 33/13 A3012 RMK A01 T03260133  RH  031%=      5-min Rain = 0
KQU1 111658Z 17014KT 33/13 A3012 RMK A01 T03250132  RH  031%=      5-min Rain = 0
KQU1 111659Z 18011KT 32/13 A3012 RMK A01 T03240130  RH  031%=      5-min Rain = 0
KQU1 111700Z 18014KT 32/13 A3012 RMK A01 T03240130  RH  031%=      5-min Rain = 0
KQU1 111701Z 18013KT 33/13 A3012 RMK A01 T03250130  RH  031%=      5-min Rain = 0
KQU1 111702Z 19010KT 33/13 A3012 RMK A01 T03250128  RH  030%=      5-min Rain = 0
KQU1 111703Z 18012KT 32/13 A3012 RMK A01 T03230128  RH  030%=      5-min Rain = 0
KQU1 111704Z 18012KT 32/13 A3012 RMK A01 T03220130  RH  031%=      5-min Rain = 0
KQU1 111705Z 18013KT 32/13 A3012 RMK A01 T03200125  RH  030%=      5-min Rain = 0
KQU1 111706Z 18011KT 32/13 A3012 RMK A01 T03180129  RH  032%=      5-min Rain = 0
KQU1 111707Z 19010KT 32/13 A3012 RMK A01 T03160128  RH  032%=      5-min Rain = 0
KQU1 111708Z 20010KT 32/13 A3011 RMK A01 T03160130  RH  032%=      5-min Rain = 0
KQU1 111709Z 15012KT 32/13 A3012 RMK A01 T03190130  RH  032%=      5-min Rain = 0
KQU1 111710Z 16013KT 32/13 A3012 RMK A01 T03200131  RH  032%=      5-min Rain = 0
KQU1 111711Z 16011KT 32/13 A3012 RMK A01 T03200128  RH  031%=      5-min Rain = 0
KQU1 111712Z 15015KT 32/12 A3012 RMK A01 T03200122  RH  030%=      5-min Rain = 0
KQU1 111713Z 15015KT 32/12 A3011 RMK A01 T03200120  RH  029%=      5-min Rain = 0
KQU1 111714Z 15013G18KT 32/12 A3011 RMK A01 T03200123  RH  030%=      5-min Rain = 0
KQU1 111715Z 16018KT 32/13 A3011 RMK A01 T03220127  RH  030%=      5-min Rain = 0
KQU1 111716Z 17019KT 32/13 A3011 RMK A01 T03220128  RH  031%=      5-min Rain = 0
KQU1 111717Z 18015KT 32/13 A3011 RMK A01 T03200129  RH  031%=      5-min Rain = 0
KQU1 111718Z 17014KT 32/13 A3011 RMK A01 T03210131  RH  031%=      5-min Rain = 0
KQU1 111719Z 17016KT 32/13 A3011 RMK A01 T03230132  RH  031%=      5-min Rain = 0
KQU1 111720Z 19011KT 32/13 A3012 RMK A01 T03240134  RH  032%=      5-min Rain = 0
KQU1 111721Z 19011G16KT 32/13 A3011 RMK A01 T03240132  RH  031%=      5-min Rain = 0
KQU1 111722Z 19013KT 33/13 A3011 RMK A01 T03250130  RH  031%=      5-min Rain = 0
KQU1 111723Z 17013KT 33/13 A3011 RMK A01 T03260129  RH  030%=      5-min Rain = 0
KQU1 111724Z 17014KT 33/13 A3011 RMK A01 T03300129  RH  029%=      5-min Rain = 0
KQU1 111725Z 17017KT 33/13 A3011 RMK A01 T03330129  RH  029%=      5-min Rain = 0
KQU1 111726Z 17018KT 33/13 A3011 RMK A01 T03340130  RH  029%=      5-min Rain = 0
KQU1 111727Z 17017KT 33/13 A3011 RMK A01 T03320131  RH  030%=      5-min Rain = 0
KQU1 111728Z 17015KT 33/13 A3011 RMK A01 T03330130  RH  029%=      5-min Rain = 0
KQU1 111729Z 18019KT 33/13 A3011 RMK A01 T03320126  RH  029%=      5-min Rain = 0
KQU1 111730Z 19019KT 33/13 A3011 RMK A01 T03300128  RH  029%=      5-min Rain = 0
KQU1 111731Z 20016KT 33/13 A3011 RMK A01 T03290128  RH  029%=      5-min Rain = 0
KQU1 111732Z 19014KT 33/13 A3011 RMK A01 T03280129  RH  030%=      5-min Rain = 0
KQU1 111733Z 20014KT 33/13 A3011 RMK A01 T03290125  RH  029%=      5-min Rain = 0
KQU1 111734Z 18013KT 33/13 A3011 RMK A01 T03310126  RH  029%=      5-min Rain = 0
KQU1 111735Z 20014G20KT 33/13 A3011 RMK A01 T03320127  RH  029%=      5-min Rain = 0
KQU1 111736Z 20016KT 33/13 A3011 RMK A01 T03300128  RH  029%=      5-min Rain = 0
KQU1 111737Z 20012KT 33/13 A3011 RMK A01 T03270129  RH  030%=      5-min Rain = 0
KQU1 111738Z 20013KT 33/13 A3011 RMK A01 T03260127  RH  030%=      5-min Rain = 0
KQU1 111739Z 17010KT 32/13 A3011 RMK A01 T03240125  RH  030%=      5-min Rain = 0
KQU1 111740Z 17012G18KT 32/13 A3011 RMK A01 T03240129  RH  031%=      5-min Rain = 0
KQU1 111741Z 17012G19KT 33/13 A3011 RMK A01 T03270131  RH  030%=      5-min Rain = 0
KQU1 111742Z 18008KT 33/13 A301 RMK A01 T03250131  RH  031%=      5-min Rain = 0
KQU1 111743Z 17011KT 33/13 A301 RMK A01 T03260133  RH  031%=      5-min Rain = 0
KQU1 111744Z 18013KT 33/13 A301 RMK A01 T03290132  RH  030%=      5-min Rain = 0
KQU1 111745Z 19015KT 33/13 A301 RMK A01 T03300127  RH  029%=      5-min Rain = 0
KQU1 111746Z 20014G19KT 33/13 A301 RMK A01 T03300128  RH  029%=      5-min Rain = 0
KQU1 111747Z 20018KT 33/13 A301 RMK A01 T03310127  RH  029%=      5-min Rain = 0
KQU1 111748Z 17017G22KT 33/13 A301 RMK A01 T03340131  RH  029%=      5-min Rain = 0
KQU1 111749Z 18020KT 33/13 A301 RMK A01 T03330128  RH  029%=      5-min Rain = 0
KQU1 111750Z 18018KT 33/13 A301 RMK A01 T03320128  RH  029%=      5-min Rain = 0
KQU1 111751Z 16013KT 33/13 A301 RMK A01 T03310131  RH  030%=      5-min Rain = 0
KQU1 111752Z 16011KT 33/13 A301 RMK A01 T03320130  RH  029%=      5-min Rain = 0
KQU1 111753Z 16017KT 33/13 A301 RMK A01 T03320131  RH  030%=      5-min Rain = 0
KQU1 111754Z 17015KT 33/13 A301 RMK A01 T03340131  RH  029%=      5-min Rain = 0
KQU1 111755Z 19018KT 34/13 A301 RMK A01 T03350125  RH  028%=      5-min Rain = 0
KQU1 111756Z 19017KT 34/13 A301 RMK A01 T03360125  RH  028%=      5-min Rain = 0
KQU1 111757Z 19011G16KT 33/13 A301 RMK A01 T03340125  RH  028%=      5-min Rain = 0
KQU1 111758Z 19008KT 33/13 A301 RMK A01 T03330127  RH  029%=      5-min Rain = 0
KQU1 111759Z 19010KT 33/13 A301 RMK A01 T03320125  RH  029%=      5-min Rain = 0
KQU1 111800Z 20016KT 33/13 A301 RMK A01 T03320126  RH  029%=      5-min Rain = 0
KQU1 111801Z 20018KT 33/13 A301 RMK A01 T03330125  RH  028%=      5-min Rain = 0
KQU1 111802Z 18019KT 34/13 A301 RMK A01 T03360126  RH  028%=      5-min Rain = 0
KQU1 111803Z 18017KT 34/12 A301 RMK A01 T03380123  RH  027%=      5-min Rain = 0
KQU1 111804Z 18013KT 34/12 A301 RMK A01 T03370122  RH  027%=      5-min Rain = 0
KQU1 111805Z 19013KT 34/12 A301 RMK A01 T03360124  RH  028%=      5-min Rain = 0
KQU1 111806Z 21013KT 34/13 A301 RMK A01 T03360127  RH  028%=      5-min Rain = 0
KQU1 111807Z 21010KT 33/13 A301 RMK A01 T03340128  RH  029%=      5-min Rain = 0
KQU1 111808Z 20010G18KT 33/13 A301 RMK A01 T03340130  RH  029%=      5-min Rain = 0
KQU1 111809Z 19015KT 34/12 A301 RMK A01 T03360123  RH  028%=      5-min Rain = 0
KQU1 111810Z 17016KT 34/12 A301 RMK A01 T03380124  RH  027%=      5-min Rain = 0
KQU1 111811Z 16009KT 34/12 A301 RMK A01 T03370122  RH  027%=      5-min Rain = 0
KQU1 111812Z 16011G16KT 34/13 A301 RMK A01 T03360126  RH  028%=      5-min Rain = 0
KQU1 111813Z 14012KT 34/12 A301 RMK A01 T03370124  RH  027%=      5-min Rain = 0
KQU1 111814Z 16013KT 34/12 A301 RMK A01 T03380123  RH  027%=      5-min Rain = 0
KQU1 111815Z 20013KT 34/13 A301 RMK A01 T03380125  RH  027%=      5-min Rain = 0
KQU1 111816Z 21012KT 34/12 A301 RMK A01 T03380124  RH  027%=      5-min Rain = 0
KQU1 111817Z 21011KT 34/12 A301 RMK A01 T03380122  RH  027%=      5-min Rain = 0
KQU1 111818Z 20012KT 34/12 A301 RMK A01 T03370124  RH  027%=      5-min Rain = 0
KQU1 111819Z 22012KT 34/12 A3009 RMK A01 T03350119  RH  027%=      5-min Rain = 0
KQU1 111820Z 20014G19KT 33/12 A3009 RMK A01 T03340122  RH  028%=      5-min Rain = 0
KQU1 111821Z 18016KT 33/12 A301 RMK A01 T03340118  RH  027%=      5-min Rain = 0
KQU1 111822Z 17011KT 33/12 A3009 RMK A01 T03330117  RH  027%=      5-min Rain = 0
KQU1 111823Z 18013KT 33/12 A3009 RMK A01 T03330116  RH  027%=      5-min Rain = 0
KQU1 111824Z 21017KT 34/11 A3009 RMK A01 T03370112  RH  026%=      5-min Rain = 0
KQU1 111825Z 22016KT 34/11 A3009 RMK A01 T03370110  RH  025%=      5-min Rain = 0
KQU1 111826Z 20013KT 34/11 A3009 RMK A01 T03360110  RH  025%=      5-min Rain = 0
KQU1 111827Z 19015KT 34/11 A3009 RMK A01 T03380111  RH  025%=      5-min Rain = 0
KQU1 111828Z 20019KT 34/11 A3009 RMK A01 T03400111  RH  025%=      5-min Rain = 0
KQU1 111829Z 20012KT 34/11 A3009 RMK A01 T03400110  RH  025%=      5-min Rain = 0
KQU1 111830Z 20013KT 34/11 A3009 RMK A01 T03400111  RH  025%=      5-min Rain = 0
KQU1 111831Z 21015G20KT 34/11 A3009 RMK A01 T03380110  RH  025%=      5-min Rain = 0
KQU1 111832Z 20018KT 34/11 A3009 RMK A01 T03370109  RH  025%=      5-min Rain = 0
KQU1 111833Z 20021KT 34/11 A3009 RMK A01 T03380108  RH  025%=      5-min Rain = 0
KQU1 111834Z 19019KT 34/11 A3009 RMK A01 T03400107  RH  024%=      5-min Rain = 0
KQU1 111835Z 21018KT 34/11 A3009 RMK A01 T03380106  RH  024%=      5-min Rain = 0
KQU1 111836Z 20017KT 34/10 A3009 RMK A01 T03380102  RH  024%=      5-min Rain = 0
KQU1 111837Z 19013G21KT 34/10 A3009 RMK A01 T03370099  RH  023%=      5-min Rain = 0
KQU1 111838Z 20019KT 34/11 A3009 RMK A01 T03400107  RH  024%=      5-min Rain = 0
KQU1 111839Z 20018KT 34/10 A3009 RMK A01 T03410101  RH  023%=      5-min Rain = 0
KQU1 111840Z 20016KT 34/11 A3009 RMK A01 T03390105  RH  024%=      5-min Rain = 0
KQU1 111841Z 18015KT 34/11 A3009 RMK A01 T03380108  RH  025%=      5-min Rain = 0
KQU1 111842Z 20018KT 34/11 A3009 RMK A01 T03370111  RH  025%=      5-min Rain = 0
KQU1 111843Z 20013KT 33/11 A3009 RMK A01 T03340112  RH  026%=      5-min Rain = 0
KQU1 111844Z 19015G25KT 34/11 A3009 RMK A01 T03360112  RH  026%=      5-min Rain = 0
KQU1 111845Z 19020KT 34/11 A3009 RMK A01 T03400108  RH  024%=      5-min Rain = 0
KQU1 111846Z 19016KT 34/11 A3009 RMK A01 T03410106  RH  024%=      5-min Rain = 0
KQU1 111847Z 18019KT 34/11 A3009 RMK A01 T03410108  RH  024%=      5-min Rain = 0
KQU1 111848Z 17016KT 34/11 A3009 RMK A01 T03410109  RH  024%=      5-min Rain = 0
KQU1 111849Z 18014KT 34/11 A3009 RMK A01 T03410108  RH  024%=      5-min Rain = 0
KQU1 111850Z 18012G17KT 34/10 A3009 RMK A01 T03410104  RH  024%=      5-min Rain = 0
KQU1 111851Z 17013KT 34/11 A3009 RMK A01 T03390110  RH  025%=      5-min Rain = 0
KQU1 111852Z 18013KT 34/11 A3009 RMK A01 T03440112  RH  024%=      5-min Rain = 0
KQU1 111853Z 19013KT 34/11 A3009 RMK A01 T03430106  RH  024%=      5-min Rain = 0
KQU1 111854Z 19017KT 34/11 A3009 RMK A01 T03410109  RH  024%=      5-min Rain = 0
KQU1 111855Z 17018KT 34/11 A3009 RMK A01 T03420114  RH  025%=      5-min Rain = 0
KQU1 111856Z 17012KT 34/11 A3008 RMK A01 T03420113  RH  025%=      5-min Rain = 0
KQU1 111857Z 18010KT 34/11 A3008 RMK A01 T03410114  RH  025%=      5-min Rain = 0
KQU1 111858Z 18013KT 34/11 A3008 RMK A01 T03420114  RH  025%=      5-min Rain = 0
KQU1 111859Z 20016KT 34/11 A3008 RMK A01 T03420112  RH  025%=      5-min Rain = 0
KQU1 111900Z 20013KT 34/11 A3008 RMK A01 T03390111  RH  025%=      5-min Rain = 0
KQU1 111901Z 20015KT 34/11 A3008 RMK A01 T03400114  RH  025%=      5-min Rain = 0
KQU1 111902Z 17014KT 35/11 A3008 RMK A01 T03450113  RH  025%=      5-min Rain = 0
KQU1 111903Z 18016G21KT 34/11 A3008 RMK A01 T03430111  RH  024%=      5-min Rain = 0
KQU1 111904Z 18020KT 34/11 A3008 RMK A01 T03440110  RH  024%=      5-min Rain = 0
KQU1 111905Z 17017KT 34/11 A3008 RMK A01 T03430111  RH  024%=      5-min Rain = 0
KQU1 111906Z 19016KT 34/11 A3008 RMK A01 T03440112  RH  024%=      5-min Rain = 0
KQU1 111907Z 21017KT 34/11 A3008 RMK A01 T03440112  RH  024%=      5-min Rain = 0
KQU1 111908Z 19017KT 34/11 A3007 RMK A01 T03430111  RH  024%=      5-min Rain = 0
KQU1 111909Z 17019G26KT 35/11 A3008 RMK A01 T03450113  RH  025%=      5-min Rain = 0
KQU1 111910Z 17015KT 35/11 A3008 RMK A01 T03480114  RH  024%=      5-min Rain = 0
KQU1 111911Z 19011KT 35/11 A3008 RMK A01 T03480112  RH  024%=      5-min Rain = 0
KQU1 111912Z 19007KT 34/11 A3008 RMK A01 T03430108  RH  024%=      5-min Rain = 0
KQU1 111913Z 17016G21KT 34/11 A3008 RMK A01 T03410109  RH  024%=      5-min Rain = 0
KQU1 111914Z 20016KT 34/11 A3007 RMK A01 T03410106  RH  024%=      5-min Rain = 0
KQU1 111915Z 16021G26KT 34/11 A3008 RMK A01 T03430113  RH  025%=      5-min Rain = 0
KQU1 111916Z 17016KT 34/11 A3008 RMK A01 T03420114  RH  025%=      5-min Rain = 0
KQU1 111917Z 17015KT 34/12 A3008 RMK A01 T03420115  RH  025%=      5-min Rain = 0
KQU1 111918Z 17010KT 34/12 A3008 RMK A01 T03420117  RH  026%=      5-min Rain = 0
KQU1 111919Z 18014G20KT 34/11 A3008 RMK A01 T03410114  RH  025%=      5-min Rain = 0
KQU1 111920Z 17017KT 34/11 A3007 RMK A01 T03420107  RH  024%=      5-min Rain = 0
KQU1 111921Z 18015KT 34/11 A3007 RMK A01 T03430109  RH  024%=      5-min Rain = 0
KQU1 111922Z 17020KT 35/11 A3007 RMK A01 T03450113  RH  024%=      5-min Rain = 0
KQU1 111923Z 16017KT 35/11 A3007 RMK A01 T03470111  RH  024%=      5-min Rain = 0
KQU1 111924Z 18017KT 35/11 A3007 RMK A01 T03460111  RH  024%=      5-min Rain = 0
KQU1 111925Z 18022KT 35/11 A3007 RMK A01 T03460107  RH  023%=      5-min Rain = 0
KQU1 111926Z 19019KT 34/11 A3007 RMK A01 T03440108  RH  024%=      5-min Rain = 0
KQU1 111927Z 21012KT 34/11 A3007 RMK A01 T03410108  RH  024%=      5-min Rain = 0
KQU1 111928Z 19012KT 34/11 A3007 RMK A01 T03400109  RH  024%=      5-min Rain = 0
KQU1 111929Z 20013KT 34/11 A3007 RMK A01 T03410110  RH  024%=      5-min Rain = 0
KQU1 111930Z 17016KT 34/11 A3007 RMK A01 T03430110  RH  024%=      5-min Rain = 0
KQU1 111931Z 17018KT 35/11 A3007 RMK A01 T03460109  RH  024%=      5-min Rain = 0
KQU1 111932Z 17012KT 35/11 A3007 RMK A01 T03510111  RH  023%=      5-min Rain = 0
KQU1 111933Z 18014KT 36/11 A3007 RMK A01 T03550106  RH  022%=      5-min Rain = 0
KQU1 111934Z 17012KT 35/11 A3007 RMK A01 T03540106  RH  022%=      5-min Rain = 0
KQU1 111935Z 16018G23KT 35/11 A3007 RMK A01 T03530105  RH  022%=      5-min Rain = 0
KQU1 111936Z 17016KT 35/11 A3007 RMK A01 T03500108  RH  023%=      5-min Rain = 0
KQU1 111937Z 17012KT 35/11 A3007 RMK A01 T03470113  RH  024%=      5-min Rain = 0
KQU1 111938Z 17013KT 35/11 A3007 RMK A01 T03480113  RH  024%=      5-min Rain = 0
KQU1 111939Z 19013KT 35/11 A3007 RMK A01 T03470113  RH  024%=      5-min Rain = 0
KQU1 111940Z 17011KT 35/11 A3007 RMK A01 T03450114  RH  025%=      5-min Rain = 0
KQU1 111941Z 18019G24KT 35/12 A3007 RMK A01 T03450115  RH  025%=      5-min Rain = 0
KQU1 111942Z 19020KT 35/11 A3006 RMK A01 T03470113  RH  024%=      5-min Rain = 0
KQU1 111943Z 20016KT 35/11 A3007 RMK A01 T03480113  RH  024%=      5-min Rain = 0
KQU1 111944Z 19017KT 35/11 A3007 RMK A01 T03490113  RH  024%=      5-min Rain = 0
KQU1 111945Z 19016KT 35/11 A3007 RMK A01 T03480111  RH  024%=      5-min Rain = 0
KQU1 111946Z 19012KT 35/11 A3006 RMK A01 T03480112  RH  024%=      5-min Rain = 0
KQU1 111947Z 18011KT 35/11 A3007 RMK A01 T03470105  RH  023%=      5-min Rain = 0
KQU1 111948Z 17011G17KT 34/11 A3006 RMK A01 T03430106  RH  024%=      5-min Rain = 0
KQU1 111949Z 16010KT 34/11 A3007 RMK A01 T03410105  RH  024%=      5-min Rain = 0
KQU1 111950Z 15017KT 34/11 A3006 RMK A01 T03430107  RH  024%=      5-min Rain = 0
KQU1 111951Z 15016G21KT 34/10 A3006 RMK A01 T03440103  RH  023%=      5-min Rain = 0
KQU1 111952Z 16019KT 35/11 A3006 RMK A01 T03460105  RH  023%=      5-min Rain = 0
KQU1 111953Z 17016KT 35/10 A3006 RMK A01 T03490102  RH  022%=      5-min Rain = 0
KQU1 111954Z 18018G24KT 35/10 A3006 RMK A01 T03490098  RH  022%=      5-min Rain = 0
KQU1 111955Z 18019KT 35/09 A3006 RMK A01 T03490086  RH  020%=      5-min Rain = 0
KQU1 111956Z 19018G23KT 35/08 A3006 RMK A01 T03490081  RH  019%=      5-min Rain = 0
KQU1 111957Z 19015KT 35/09 A3006 RMK A01 T03510085  RH  020%=      5-min Rain = 0
KQU1 111958Z 18017KT 35/09 A3006 RMK A01 T03530088  RH  020%=      5-min Rain = 0
KQU1 111959Z 18015KT 35/09 A3006 RMK A01 T03520094  RH  021%=      5-min Rain = 0
KQU1 112000Z 19012KT 35/10 A3006 RMK A01 T03480096  RH  021%=      5-min Rain = 0
KQU1 112001Z 19011KT 35/10 A3006 RMK A01 T03460095  RH  022%=      5-min Rain = 0
KQU1 112002Z 19019G25KT 35/10 A3006 RMK A01 T03500101  RH  022%=      5-min Rain = 0
KQU1 112003Z 20019KT 35/10 A3006 RMK A01 T03520103  RH  022%=      5-min Rain = 0
KQU1 112004Z 20017G23KT 35/10 A3006 RMK A01 T03520104  RH  022%=      5-min Rain = 0
KQU1 112005Z 19019KT 35/10 A3006 RMK A01 T03530104  RH  022%=      5-min Rain = 0
KQU1 112006Z 19019KT 35/10 A3006 RMK A01 T03520104  RH  022%=      5-min Rain = 0
KQU1 112007Z 19017KT 35/10 A3006 RMK A01 T03510102  RH  022%=      5-min Rain = 0
KQU1 112008Z 18014KT 35/11 A3006 RMK A01 T03520105  RH  022%=      5-min Rain = 0
KQU1 112009Z 18014KT 35/10 A3006 RMK A01 T03520103  RH  022%=      5-min Rain = 0
KQU1 112010Z 17014KT 35/11 A3006 RMK A01 T03520106  RH  022%=      5-min Rain = 0
KQU1 112011Z 17014KT 35/11 A3006 RMK A01 T03520108  RH  023%=      5-min Rain = 0
KQU1 112012Z 17015G22KT 35/11 A3006 RMK A01 T03510107  RH  023%=      5-min Rain = 0
KQU1 112013Z 19019KT 35/11 A3006 RMK A01 T03500106  RH  023%=      5-min Rain = 0
KQU1 112014Z 20020KT 35/11 A3006 RMK A01 T03510105  RH  022%=      5-min Rain = 0
KQU1 112015Z 21020KT 35/11 A3005 RMK A01 T03500106  RH  023%=      5-min Rain = 0
KQU1 112016Z 20018KT 35/11 A3005 RMK A01 T03490108  RH  023%=      5-min Rain = 0
KQU1 112017Z 18015KT 35/11 A3006 RMK A01 T03500110  RH  023%=      5-min Rain = 0
KQU1 112018Z 18013KT 35/11 A3005 RMK A01 T03510111  RH  023%=      5-min Rain = 0
KQU1 112019Z 18019KT 35/11 A3006 RMK A01 T03540112  RH  023%=      5-min Rain = 0
KQU1 112020Z 17016KT 35/11 A3006 RMK A01 T03520108  RH  023%=      5-min Rain = 0
KQU1 112021Z 17011KT 35/11 A3006 RMK A01 T03490112  RH  024%=      5-min Rain = 0
KQU1 112022Z 18014G19KT 35/11 A3006 RMK A01 T03500114  RH  024%=      5-min Rain = 0
KQU1 112023Z 19015KT 35/11 A3005 RMK A01 T03490112  RH  024%=      5-min Rain = 0
KQU1 112024Z 19017KT 35/12 A3005 RMK A01 T03490115  RH  024%=      5-min Rain = 0
KQU1 112025Z 19019KT 35/11 A3005 RMK A01 T03510114  RH  024%=      5-min Rain = 0
KQU1 112026Z 19017KT 35/12 A3005 RMK A01 T03500116  RH  024%=      5-min Rain = 0
KQU1 112027Z 19016KT 35/11 A3005 RMK A01 T03500113  RH  024%=      5-min Rain = 0
KQU1 112028Z 20015G20KT 35/11 A3005 RMK A01 T03460114  RH  024%=      5-min Rain = 0
KQU1 112029Z 19015KT 34/12 A3005 RMK A01 T03440115  RH  025%=      5-min Rain = 0
KQU1 112030Z 20011KT 34/12 A3005 RMK A01 T03420116  RH  025%=      5-min Rain = 0
KQU1 112031Z 17008KT 34/12 A3005 RMK A01 T03420117  RH  026%=      5-min Rain = 0
KQU1 112032Z 14013KT 34/12 A3005 RMK A01 T03420119  RH  026%=      5-min Rain = 0
KQU1 112033Z 15015KT 34/12 A3005 RMK A01 T03420119  RH  026%=      5-min Rain = 0
KQU1 112034Z 16014KT 34/12 A3005 RMK A01 T03410120  RH  026%=      5-min Rain = 0
KQU1 112035Z 18015KT 34/12 A3005 RMK A01 T03410120  RH  026%=      5-min Rain = 0
KQU1 112036Z 20015G20KT 34/12 A3005 RMK A01 T03410120  RH  026%=      5-min Rain = 0
KQU1 112037Z 21018KT 34/12 A3004 RMK A01 T03440122  RH  026%=      5-min Rain = 0
KQU1 112038Z 19023KT 35/12 A3004 RMK A01 T03480120  RH  025%=      5-min Rain = 0
KQU1 112039Z 19019KT 35/12 A3005 RMK A01 T03490117  RH  025%=      5-min Rain = 0
KQU1 112040Z 20017G23KT 35/12 A3005 RMK A01 T03500118  RH  025%=      5-min Rain = 0
KQU1 112041Z 20016G23KT 35/12 A3005 RMK A01 T03480117  RH  025%=      5-min Rain = 0
KQU1 112042Z 20016KT 34/12 A3005 RMK A01 T03440118  RH  025%=      5-min Rain = 0
KQU1 112043Z 20013KT 34/12 A3005 RMK A01 T03410118  RH  026%=      5-min Rain = 0
KQU1 112044Z 19014KT 34/12 A3004 RMK A01 T03390119  RH  026%=      5-min Rain = 0
KQU1 112045Z 18011KT 34/12 A3004 RMK A01 T03370118  RH  026%=      5-min Rain = 0
KQU1 112046Z 17016KT 34/12 A3004 RMK A01 T03360120  RH  027%=      5-min Rain = 0
KQU1 112047Z 17017KT 34/12 A3004 RMK A01 T03350118  RH  027%=      5-min Rain = 0
KQU1 112048Z 18017KT 34/12 A3004 RMK A01 T03360116  RH  026%=      5-min Rain = 0
KQU1 112049Z 18015KT 34/11 A3004 RMK A01 T03350113  RH  026%=      5-min Rain = 0
KQU1 112050Z 17014KT 34/11 A3004 RMK A01 T03350114  RH  026%=      5-min Rain = 0
KQU1 112051Z 19015KT 34/12 A3004 RMK A01 T03360116  RH  026%=      5-min Rain = 0
KQU1 112052Z 18016KT 34/12 A3004 RMK A01 T03380117  RH  026%=      5-min Rain = 0
KQU1 112053Z 17017KT 34/12 A3004 RMK A01 T03380117  RH  026%=      5-min Rain = 0
KQU1 112054Z 16017G23KT 34/12 A3004 RMK A01 T03360117  RH  026%=      5-min Rain = 0
KQU1 112055Z 16017KT 34/12 A3004 RMK A01 T03350117  RH  027%=      5-min Rain = 0
KQU1 112056Z 17015KT 33/12 A3004 RMK A01 T03340117  RH  027%=      5-min Rain = 0
KQU1 112057Z 17015KT 33/12 A3004 RMK A01 T03340117  RH  027%=      5-min Rain = 0
KQU1 112058Z 18012KT 33/12 A3004 RMK A01 T03340117  RH  027%=      5-min Rain = 0
KQU1 112059Z 18011G16KT 33/12 A3004 RMK A01 T03340118  RH  027%=      5-min Rain = 0
KQU1 112100Z 18016KT 34/12 A3004 RMK A01 T03360119  RH  027%=      5-min Rain = 0
KQU1 112101Z 17013KT 34/12 A3004 RMK A01 T03360119  RH  027%=      5-min Rain = 0
KQU1 112102Z 17014KT 34/12 A3004 RMK A01 T03370120  RH  027%=      5-min Rain = 0
KQU1 112103Z 18011KT 34/12 A3003 RMK A01 T03400120  RH  026%=      5-min Rain = 0
KQU1 112104Z 17010G17KT 34/12 A3003 RMK A01 T03420120  RH  026%=      5-min Rain = 0
KQU1 112105Z 17016KT 35/12 A3003 RMK A01 T03470119  RH  025%=      5-min Rain = 0
KQU1 112106Z 16016KT 35/12 A3003 RMK A01 T03500115  RH  024%=      5-min Rain = 0
KQU1 112107Z 15014KT 35/12 A3003 RMK A01 T03500118  RH  025%=      5-min Rain = 0
KQU1 112108Z 16015KT 35/12 A3003 RMK A01 T03520117  RH  024%=      5-min Rain = 0
KQU1 112109Z 16012KT 35/12 A3003 RMK A01 T03520118  RH  024%=      5-min Rain = 0
KQU1 112110Z 15013KT 35/12 A3003 RMK A01 T03520117  RH  024%=      5-min Rain = 0
KQU1 112111Z 15012KT 35/12 A3003 RMK A01 T03520117  RH  024%=      5-min Rain = 0
KQU1 112112Z 17010KT 35/12 A3003 RMK A01 T03500115  RH  024%=      5-min Rain = 0
KQU1 112113Z 19012KT 35/11 A3003 RMK A01 T03460114  RH  024%=      5-min Rain = 0
KQU1 112114Z 19010KT 35/12 A3003 RMK A01 T03450117  RH  025%=      5-min Rain = 0
KQU1 112115Z 19013G19KT 35/12 A3003 RMK A01 T03510118  RH  024%=      5-min Rain = 0
KQU1 112116Z 20016KT 36/11 A3003 RMK A01 T03560112  RH  023%=      5-min Rain = 0
KQU1 112117Z 20015KT 36/11 A3003 RMK A01 T03550112  RH  023%=      5-min Rain = 0
KQU1 112118Z 20013KT 36/11 A3003 RMK A01 T03550112  RH  023%=      5-min Rain = 0
KQU1 112119Z 18014KT 36/11 A3003 RMK A01 T03560111  RH  023%=      5-min Rain = 0
KQU1 112120Z 20015KT 35/11 A3003 RMK A01 T03530111  RH  023%=      5-min Rain = 0
KQU1 112121Z 20013KT 35/11 A3003 RMK A01 T03490110  RH  023%=      5-min Rain = 0
KQU1 112122Z 19014KT 35/11 A3003 RMK A01 T03470110  RH  024%=      5-min Rain = 0
KQU1 112123Z 18012G17KT 35/11 A3003 RMK A01 T03490111  RH  024%=      5-min Rain = 0
KQU1 112124Z 17012KT 35/11 A3002 RMK A01 T03500114  RH  024%=      5-min Rain = 0
KQU1 112125Z 16014KT 35/11 A3002 RMK A01 T03530113  RH  023%=      5-min Rain = 0
KQU1 112126Z 16014KT 35/11 A3002 RMK A01 T03540114  RH  023%=      5-min Rain = 0
KQU1 112127Z 15013KT 36/12 A3002 RMK A01 T03550115  RH  023%=      5-min Rain = 0
KQU1 112128Z 16012KT 36/11 A3002 RMK A01 T03560113  RH  023%=      5-min Rain = 0
KQU1 112129Z 15015G20KT 35/11 A3002 RMK A01 T03540111  RH  023%=      5-min Rain = 0
KQU1 112130Z 14017KT 35/11 A3002 RMK A01 T03510111  RH  023%=      5-min Rain = 0
KQU1 112131Z 15015KT 35/11 A3002 RMK A01 T03480112  RH  024%=      5-min Rain = 0
KQU1 112132Z 16013KT 35/11 A3002 RMK A01 T03470112  RH  024%=      5-min Rain = 0
KQU1 112133Z 15011G16KT 35/11 A3002 RMK A01 T03460112  RH  024%=      5-min Rain = 0
KQU1 112134Z 15012KT 35/11 A3002 RMK A01 T03450111  RH  024%=      5-min Rain = 0
KQU1 112135Z 16013KT 34/11 A3002 RMK A01 T03430111  RH  024%=      5-min Rain = 0
KQU1 112136Z 18014KT 34/11 A3002 RMK A01 T03420112  RH  025%=      5-min Rain = 0
KQU1 112137Z 19013KT 34/11 A3002 RMK A01 T03410112  RH  025%=      5-min Rain = 0
KQU1 112138Z 18015KT 34/11 A3002 RMK A01 T03400111  RH  025%=      5-min Rain = 0
KQU1 112139Z 18018KT 34/11 A3002 RMK A01 T03390113  RH  025%=      5-min Rain = 0
KQU1 112140Z 18016KT 34/11 A3002 RMK A01 T03370113  RH  025%=      5-min Rain = 0
KQU1 112141Z 18014KT 34/11 A3002 RMK A01 T03370114  RH  026%=      5-min Rain = 0
KQU1 112142Z 18015KT 34/11 A3002 RMK A01 T03360113  RH  026%=      5-min Rain = 0
KQU1 112143Z 19015KT 34/11 A3002 RMK A01 T03360113  RH  026%=      5-min Rain = 0
KQU1 112144Z 19016KT 34/11 A3002 RMK A01 T03360111  RH  025%=      5-min Rain = 0
KQU1 112145Z 18013KT 34/11 A3002 RMK A01 T03350112  RH  026%=      5-min Rain = 0
KQU1 112146Z 16014KT 34/11 A3002 RMK A01 T03370114  RH  026%=      5-min Rain = 0
KQU1 112147Z 16015KT 34/11 A3002 RMK A01 T03370110  RH  025%=      5-min Rain = 0
KQU1 112148Z 15011KT 34/11 A3001 RMK A01 T03360109  RH  025%=      5-min Rain = 0
KQU1 112149Z 16015KT 34/11 A3001 RMK A01 T03350108  RH  025%=      5-min Rain = 0
KQU1 112150Z 16014KT 34/11 A3001 RMK A01 T03350108  RH  025%=      5-min Rain = 0
KQU1 112151Z 16011KT 34/11 A3001 RMK A01 T03350110  RH  025%=      5-min Rain = 0
KQU1 112152Z 17015KT 34/11 A3001 RMK A01 T03360112  RH  026%=      5-min Rain = 0
KQU1 112153Z 17016KT 34/11 A3001 RMK A01 T03360114  RH  026%=      5-min Rain = 0
KQU1 112154Z 18014KT 34/11 A3001 RMK A01 T03370114  RH  026%=      5-min Rain = 0
KQU1 112155Z 18013KT 34/11 A3001 RMK A01 T03370114  RH  026%=      5-min Rain = 0
KQU1 112156Z 19014KT 34/11 A3001 RMK A01 T03380112  RH  025%=      5-min Rain = 0
KQU1 112157Z 20012KT 34/11 A3001 RMK A01 T03380112  RH  025%=      5-min Rain = 0
KQU1 112158Z 20011KT 34/11 A3001 RMK A01 T03390113  RH  025%=      5-min Rain = 0
KQU1 112159Z 19014G19KT 34/11 A3001 RMK A01 T03400112  RH  025%=      5-min Rain = 0
KQU1 112200Z 18016KT 34/11 A3001 RMK A01 T03400111  RH  025%=      5-min Rain = 0
KQU1 112201Z 18014KT 34/11 A3001 RMK A01 T03380112  RH  025%=      5-min Rain = 0
KQU1 112202Z 18015KT 34/11 A3001 RMK A01 T03380113  RH  025%=      5-min Rain = 0
KQU1 112203Z 17015KT 34/11 A3001 RMK A01 T03380110  RH  025%=      5-min Rain = 0
KQU1 112204Z 18013KT 34/11 A3001 RMK A01 T03370111  RH  025%=      5-min Rain = 0
KQU1 112205Z 19012KT 34/11 A3001 RMK A01 T03370113  RH  025%=      5-min Rain = 0
KQU1 112206Z 19011KT 34/11 A3001 RMK A01 T03370113  RH  026%=      5-min Rain = 0
KQU1 112207Z 19013G19KT 34/11 A3001 RMK A01 T03380113  RH  025%=      5-min Rain = 0
KQU1 112208Z 17018KT 34/11 A3001 RMK A01 T03380112  RH  025%=      5-min Rain = 0
KQU1 112209Z 18017KT 34/11 A3001 RMK A01 T03370112  RH  025%=      5-min Rain = 0
KQU1 112210Z 18019KT 34/11 A3001 RMK A01 T03360111  RH  025%=      5-min Rain = 0
KQU1 112211Z 18018KT 34/11 A3001 RMK A01 T03350111  RH  025%=      5-min Rain = 0
KQU1 112212Z 18014KT 34/11 A3001 RMK A01 T03350112  RH  026%=      5-min Rain = 0
KQU1 112213Z 17017KT 34/11 A3001 RMK A01 T03360111  RH  025%=      5-min Rain = 0
KQU1 112214Z 18014KT 34/11 A3001 RMK A01 T03360112  RH  026%=      5-min Rain = 0
KQU1 112215Z 16015KT 34/11 A3001 RMK A01 T03370111  RH  025%=      5-min Rain = 0
KQU1 112216Z 17013KT 34/11 A3001 RMK A01 T03370112  RH  026%=      5-min Rain = 0
KQU1 112217Z 17014KT 34/11 A3001 RMK A01 T03370112  RH  025%=      5-min Rain = 0
KQU1 112218Z 18014KT 34/11 A3001 RMK A01 T03370112  RH  025%=      5-min Rain = 0
KQU1 112219Z 16017KT 34/11 A3001 RMK A01 T03390112  RH  025%=      5-min Rain = 0
KQU1 112220Z 16017KT 34/11 A3001 RMK A01 T03400112  RH  025%=      5-min Rain = 0
KQU1 112221Z 17016KT 34/11 A3001 RMK A01 T03400111  RH  025%=      5-min Rain = 0
KQU1 112222Z 17015KT 34/11 A3001 RMK A01 T03400111  RH  025%=      5-min Rain = 0
KQU1 112223Z 17013KT 34/11 A3001 RMK A01 T03410110  RH  025%=      5-min Rain = 0
KQU1 112224Z 17014KT 34/11 A3001 RMK A01 T03400110  RH  025%=      5-min Rain = 0
KQU1 112225Z 18015KT 34/11 A3001 RMK A01 T03400111  RH  025%=      5-min Rain = 0
KQU1 112226Z 17017KT 34/11 A3001 RMK A01 T03400110  RH  025%=      5-min Rain = 0
KQU1 112227Z 18014KT 34/11 A3001 RMK A01 T03400110  RH  025%=      5-min Rain = 0
KQU1 112228Z 18011KT 34/11 A30 RMK A01 T03390110  RH  025%=      5-min Rain = 0
KQU1 112229Z 17012KT 34/11 A30 RMK A01 T03400112  RH  025%=      5-min Rain = 0
KQU1 112230Z 16013KT 34/11 A30 RMK A01 T03410112  RH  025%=      5-min Rain = 0
KQU1 112231Z 15014KT 34/11 A30 RMK A01 T03420113  RH  025%=      5-min Rain = 0
KQU1 112232Z 16016KT 34/11 A30 RMK A01 T03430111  RH  024%=      5-min Rain = 0
KQU1 112233Z 17014KT 34/11 A3001 RMK A01 T03410111  RH  025%=      5-min Rain = 0
KQU1 112234Z 17015KT 34/11 A3001 RMK A01 T03410110  RH  025%=      5-min Rain = 0
KQU1 112235Z 17014KT 34/11 A3001 RMK A01 T03390110  RH  025%=      5-min Rain = 0
KQU1 112236Z 17013KT 34/11 A3001 RMK A01 T03380110  RH  025%=      5-min Rain = 0
KQU1 112237Z 17011KT 34/11 A3001 RMK A01 T03380110  RH  025%=      5-min Rain = 0
KQU1 112238Z 18014KT 34/11 A3001 RMK A01 T03380110  RH  025%=      5-min Rain = 0
KQU1 112239Z 17014G19KT 34/11 A30 RMK A01 T03380110  RH  025%=      5-min Rain = 0
KQU1 112240Z 16014KT 34/11 A30 RMK A01 T03380110  RH  025%=      5-min Rain = 0
KQU1 112241Z 16012KT 34/11 A3001 RMK A01 T03370109  RH  025%=      5-min Rain = 0
KQU1 112242Z 15012KT 34/11 A3001 RMK A01 T03370109  RH  025%=      5-min Rain = 0
KQU1 112243Z 15013KT 34/11 A3001 RMK A01 T03370109  RH  025%=      5-min Rain = 0
KQU1 112244Z 16012KT 34/11 A3001 RMK A01 T03360109  RH  025%=      5-min Rain = 0
KQU1 112245Z 17011KT 34/11 A30 RMK A01 T03360109  RH  025%=      5-min Rain = 0
KQU1 112246Z 15014KT 34/11 A3001 RMK A01 T03360109  RH  025%=      5-min Rain = 0
KQU1 112247Z 17013G19KT 34/11 A30 RMK A01 T03360110  RH  025%=      5-min Rain = 0
KQU1 112248Z 16014KT 34/11 A30 RMK A01 T03370110  RH  025%=      5-min Rain = 0
KQU1 112249Z 15013KT 34/11 A30 RMK A01 T03370110  RH  025%=      5-min Rain = 0
KQU1 112250Z 15011KT 34/11 A30 RMK A01 T03370111  RH  025%=      5-min Rain = 0
KQU1 112251Z 15012KT 34/11 A30 RMK A01 T03380111  RH  025%=      5-min Rain = 0
KQU1 112252Z 14014KT 34/11 A30 RMK A01 T03380110  RH  025%=      5-min Rain = 0
KQU1 112253Z 14014KT 34/11 A30 RMK A01 T03380110  RH  025%=      5-min Rain = 0
KQU1 112254Z 14014G20KT 34/11 A30 RMK A01 T03380111  RH  025%=      5-min Rain = 0
KQU1 112255Z 16017KT 34/11 A30 RMK A01 T03380110  RH  025%=      5-min Rain = 0
KQU1 112256Z 17017KT 34/11 A30 RMK A01 T03380109  RH  025%=      5-min Rain = 0
KQU1 112257Z 17016KT 34/11 A30 RMK A01 T03370110  RH  025%=      5-min Rain = 0
KQU1 112258Z 17017KT 34/11 A30 RMK A01 T03370109  RH  025%=      5-min Rain = 0
KQU1 112259Z 16014KT 34/11 A30 RMK A01 T03370111  RH  025%=      5-min Rain = 0
KQU1 112300Z 16015KT 34/11 A30 RMK A01 T03380110  RH  025%=      5-min Rain = 0
KQU1 112301Z 15016KT 34/11 A30 RMK A01 T03380109  RH  025%=      5-min Rain = 0
KQU1 112302Z 16014KT 34/11 A30 RMK A01 T03370109  RH  025%=      5-min Rain = 0
KQU1 112303Z 16015KT 34/11 A30 RMK A01 T03370107  RH  025%=      5-min Rain = 0
KQU1 112304Z 16014KT 34/11 A30 RMK A01 T03360107  RH  025%=      5-min Rain = 0
KQU1 112305Z 17013KT 34/11 A30 RMK A01 T03360108  RH  025%=      5-min Rain = 0
KQU1 112306Z 18014KT 34/11 A30 RMK A01 T03360107  RH  025%=      5-min Rain = 0
KQU1 112307Z 18016KT 34/11 A30 RMK A01 T03360107  RH  025%=      5-min Rain = 0
KQU1 112308Z 17013KT 34/11 A30 RMK A01 T03370107  RH  025%=      5-min Rain = 0
KQU1 112309Z 16013KT 34/11 A30 RMK A01 T03380108  RH  025%=      5-min Rain = 0
KQU1 112310Z 16013KT 34/11 A30 RMK A01 T03380107  RH  024%=      5-min Rain = 0
KQU1 112311Z 16014KT 34/11 A30 RMK A01 T03370108  RH  025%=      5-min Rain = 0
KQU1 112312Z 17012KT 34/11 A30 RMK A01 T03370109  RH  025%=      5-min Rain = 0
KQU1 112313Z 16012KT 34/11 A30 RMK A01 T03370109  RH  025%=      5-min Rain = 0
KQU1 112314Z 16013KT 34/11 A30 RMK A01 T03380109  RH  025%=      5-min Rain = 0
KQU1 112315Z 16015KT 34/11 A30 RMK A01 T03370109  RH  025%=      5-min Rain = 0
KQU1 112316Z 16013KT 34/11 A30 RMK A01 T03360109  RH  025%=      5-min Rain = 0
KQU1 112317Z 16012KT 34/11 A30 RMK A01 T03360110  RH  025%=      5-min Rain = 0
KQU1 112318Z 15013KT 34/11 A30 RMK A01 T03360110  RH  025%=      5-min Rain = 0
KQU1 112319Z 16012KT 34/11 A30 RMK A01 T03360110  RH  025%=      5-min Rain = 0
KQU1 112320Z 15013KT 34/11 A30 RMK A01 T03360109  RH  025%=      5-min Rain = 0
KQU1 112321Z 15012KT 34/11 A30 RMK A01 T03360108  RH  025%=      5-min Rain = 0
KQU1 112322Z 16010KT 34/11 A30 RMK A01 T03360109  RH  025%=      5-min Rain = 0
KQU1 112323Z 16011KT 34/11 A30 RMK A01 T03360110  RH  025%=      5-min Rain = 0
KQU1 112324Z 17010KT 34/11 A30 RMK A01 T03360110  RH  025%=      5-min Rain = 0
KQU1 112325Z 16013G18KT 34/11 A30 RMK A01 T03360110  RH  025%=      5-min Rain = 0
KQU1 112326Z 16014KT 34/11 A30 RMK A01 T03360109  RH  025%=      5-min Rain = 0
KQU1 112327Z 15012KT 34/11 A30 RMK A01 T03360109  RH  025%=      5-min Rain = 0
KQU1 112328Z 17013KT 34/11 A30 RMK A01 T03360110  RH  025%=      5-min Rain = 0
KQU1 112329Z 16016KT 34/11 A30 RMK A01 T03360109  RH  025%=      5-min Rain = 0
KQU1 112330Z 17013KT 34/11 A30 RMK A01 T03360109  RH  025%=      5-min Rain = 0
KQU1 112331Z 18015KT 34/11 A30 RMK A01 T03360109  RH  025%=      5-min Rain = 0
KQU1 112332Z 18016KT 34/11 A30 RMK A01 T03350108  RH  025%=      5-min Rain = 0
KQU1 112333Z 17014KT 34/11 A30 RMK A01 T03350109  RH  025%=      5-min Rain = 0
KQU1 112334Z 17014KT 34/11 A30 RMK A01 T03350109  RH  025%=      5-min Rain = 0
KQU1 112335Z 17012KT 34/11 A30 RMK A01 T03350109  RH  025%=      5-min Rain = 0
KQU1 112336Z 17014KT 34/11 A30 RMK A01 T03350110  RH  025%=      5-min Rain = 0
KQU1 112337Z 17016KT 34/11 A30 RMK A01 T03350109  RH  025%=      5-min Rain = 0
KQU1 112338Z 17014KT 34/11 A30 RMK A01 T03350109  RH  025%=      5-min Rain = 0
KQU1 112339Z 17012KT 34/11 A30 RMK A01 T03350110  RH  025%=      5-min Rain = 0
KQU1 112340Z 17014KT 34/11 A30 RMK A01 T03350110  RH  025%=      5-min Rain = 0
KQU1 112341Z 17015KT 34/11 A30 RMK A01 T03350109  RH  025%=      5-min Rain = 0
KQU1 112342Z 16014KT 34/11 A30 RMK A01 T03350109  RH  025%=      5-min Rain = 0
KQU1 112343Z 17012KT 34/11 A30 RMK A01 T03350109  RH  025%=      5-min Rain = 0
KQU1 112344Z 16010KT 34/11 A30 RMK A01 T03350110  RH  025%=      5-min Rain = 0
KQU1 112345Z 15012KT 34/11 A30 RMK A01 T03350111  RH  025%=      5-min Rain = 0
KQU1 112346Z 15014KT 34/11 A30 RMK A01 T03360110  RH  025%=      5-min Rain = 0
KQU1 112347Z 15016KT 34/11 A30 RMK A01 T03350110  RH  025%=      5-min Rain = 0
KQU1 112348Z 16015KT 34/11 A30 RMK A01 T03350109  RH  025%=      5-min Rain = 0
KQU1 112349Z 16012KT 34/11 A30 RMK A01 T03350110  RH  025%=      5-min Rain = 0
KQU1 112350Z 16012KT 34/11 A30 RMK A01 T03350110  RH  025%=      5-min Rain = 0
KQU1 112351Z 16012KT 34/11 A30 RMK A01 T03350110  RH  025%=      5-min Rain = 0
KQU1 112352Z 16011KT 34/11 A30 RMK A01 T03350111  RH  025%=      5-min Rain = 0
KQU1 112353Z 16009KT 34/11 A30 RMK A01 T03350111  RH  026%=      5-min Rain = 0
KQU1 112354Z 15010KT 34/11 A30 RMK A01 T03350111  RH  026%=      5-min Rain = 0
KQU1 112355Z 15013KT 34/11 A30 RMK A01 T03350111  RH  025%=      5-min Rain = 0
KQU1 112356Z 16012KT 34/11 A30 RMK A01 T03350111  RH  025%=      5-min Rain = 0
KQU1 112357Z 16012KT 34/11 A30 RMK A01 T03350111  RH  025%=      5-min Rain = 0
KQU1 112358Z 16012KT 34/11 A30 RMK A01 T03350111  RH  025%=      5-min Rain = 0
KQU1 112359Z 15012KT 34/11 A30 RMK A01 T03360112  RH  026%=      5-min Rain = 0
KQU1 120000Z 15012KT 34/11 A30 RMK A01 T03360112  RH  026%=      5-min Rain = 0
KQU1 120001Z 16014KT 34/11 A30 RMK A01 T03360111  RH  025%=      5-min Rain = 0
KQU1 120002Z 15013KT 34/11 A30 RMK A01 T03350111  RH  025%=      5-min Rain = 0
KQU1 120003Z 15014G19KT 34/11 A30 RMK A01 T03350111  RH  025%=      5-min Rain = 0
KQU1 120004Z 16017KT 33/11 A30 RMK A01 T03340111  RH  026%=      5-min Rain = 0
KQU1 120005Z 16015KT 33/11 A30 RMK A01 T03340111  RH  026%=      5-min Rain = 0
KQU1 120006Z 15014KT 33/11 A30 RMK A01 T03340111  RH  026%=      5-min Rain = 0
KQU1 120007Z 15014KT 34/11 A30 RMK A01 T03350112  RH  026%=      5-min Rain = 0
KQU1 120008Z 15015KT 34/11 A30 RMK A01 T03360112  RH  025%=      5-min Rain = 0
KQU1 120009Z 14014KT 34/11 A30 RMK A01 T03370113  RH  026%=      5-min Rain = 0
KQU1 120010Z 14012KT 34/11 A30 RMK A01 T03380113  RH  025%=      5-min Rain = 0
KQU1 120011Z 15013KT 34/11 A30 RMK A01 T03390112  RH  025%=      5-min Rain = 0
KQU1 120012Z 15012KT 34/11 A30 RMK A01 T03380112  RH  025%=      5-min Rain = 0
KQU1 120013Z 14016KT 34/11 A30 RMK A01 T03380113  RH  025%=      5-min Rain = 0
KQU1 120014Z 14016KT 34/11 A30 RMK A01 T03370111  RH  025%=      5-min Rain = 0
KQU1 120015Z 14017KT 34/11 A30 RMK A01 T03360111  RH  025%=      5-min Rain = 0
KQU1 120016Z 15017KT 34/11 A30 RMK A01 T03350111  RH  026%=      5-min Rain = 0
KQU1 120017Z 15013KT 33/11 A30 RMK A01 T03340111  RH  026%=      5-min Rain = 0
KQU1 120018Z 14015KT 33/11 A30 RMK A01 T03330111  RH  026%=      5-min Rain = 0
KQU1 120019Z 14014KT 33/11 A30 RMK A01 T03330111  RH  026%=      5-min Rain = 0
KQU1 120020Z 14013KT 33/11 A30 RMK A01 T03330112  RH  026%=      5-min Rain = 0
KQU1 120021Z 14013KT 33/11 A30 RMK A01 T03330112  RH  026%=      5-min Rain = 0
KQU1 120022Z 15013KT 33/11 A30 RMK A01 T03330112  RH  026%=      5-min Rain = 0
KQU1 120023Z 14011KT 33/11 A30 RMK A01 T03330113  RH  026%=      5-min Rain = 0
KQU1 120024Z 14016KT 33/11 A30 RMK A01 T03330112  RH  026%=      5-min Rain = 0
KQU1 120025Z 15017KT 33/11 A30 RMK A01 T03330111  RH  026%=      5-min Rain = 0
KQU1 120026Z 15015KT 34/11 A30 RMK A01 T03350110  RH  025%=      5-min Rain = 0
KQU1 120027Z 15016KT 34/11 A30 RMK A01 T03360110  RH  025%=      5-min Rain = 0
KQU1 120028Z 15016KT 34/11 A30 RMK A01 T03370111  RH  025%=      5-min Rain = 0
KQU1 120029Z 14014KT 34/11 A30 RMK A01 T03380112  RH  025%=      5-min Rain = 0
KQU1 120030Z 14016KT 34/11 A30 RMK A01 T03390111  RH  025%=      5-min Rain = 0
KQU1 120031Z 14017KT 34/11 A30 RMK A01 T03400111  RH  025%=      5-min Rain = 0
KQU1 120032Z 15016KT 34/11 A30 RMK A01 T03400111  RH  025%=      5-min Rain = 0
KQU1 120033Z 14013KT 34/11 A30 RMK A01 T03410113  RH  025%=      5-min Rain = 0
KQU1 120034Z 14015KT 34/11 A30 RMK A01 T03410112  RH  025%=      5-min Rain = 0
KQU1 120035Z 15016KT 34/11 A30 RMK A01 T03420111  RH  025%=      5-min Rain = 0
KQU1 120036Z 16014KT 34/11 A30 RMK A01 T03410110  RH  025%=      5-min Rain = 0
KQU1 120037Z 16014KT 34/11 A30 RMK A01 T03400110  RH  025%=      5-min Rain = 0
KQU1 120038Z 15013KT 34/11 A30 RMK A01 T03390111  RH  025%=      5-min Rain = 0
KQU1 120039Z 16009KT 34/11 A30 RMK A01 T03390112  RH  025%=      5-min Rain = 0
KQU1 120040Z 16014KT 34/11 A30 RMK A01 T03390111  RH  025%=      5-min Rain = 0
KQU1 120041Z 15015KT 34/11 A30 RMK A01 T03390110  RH  025%=      5-min Rain = 0
KQU1 120042Z 16014KT 34/11 A30 RMK A01 T03370110  RH  025%=      5-min Rain = 0
KQU1 120043Z 16015KT 34/11 A30 RMK A01 T03360110  RH  025%=      5-min Rain = 0
KQU1 120044Z 16013KT 34/11 A30 RMK A01 T03350109  RH  025%=      5-min Rain = 0
KQU1 120045Z 16012G18KT 33/11 A3001 RMK A01 T03340110  RH  025%=      5-min Rain = 0
KQU1 120046Z 15015KT 33/11 A3001 RMK A01 T03340109  RH  025%=      5-min Rain = 0
KQU1 120047Z 15016KT 33/11 A3001 RMK A01 T03330109  RH  025%=      5-min Rain = 0
KQU1 120048Z 16014KT 33/11 A3001 RMK A01 T03320109  RH  026%=      5-min Rain = 0
KQU1 120049Z 15011KT 33/11 A3001 RMK A01 T03320110  RH  026%=      5-min Rain = 0
KQU1 120050Z 16013KT 33/11 A3001 RMK A01 T03310109  RH  026%=      5-min Rain = 0
KQU1 120051Z 16014KT 33/11 A3001 RMK A01 T03310110  RH  026%=      5-min Rain = 0
KQU1 120052Z 17013KT 33/11 A3001 RMK A01 T03310110  RH  026%=      5-min Rain = 0
KQU1 120053Z 15013KT 33/11 A3001 RMK A01 T03310110  RH  026%=      5-min Rain = 0
KQU1 120054Z 16013KT 33/11 A3001 RMK A01 T03310110  RH  026%=      5-min Rain = 0
KQU1 120055Z 16014KT 33/11 A3001 RMK A01 T03300110  RH  026%=      5-min Rain = 0
KQU1 120056Z 16013KT 33/11 A3001 RMK A01 T03300109  RH  026%=      5-min Rain = 0
KQU1 120057Z 16013KT 33/11 A3001 RMK A01 T03310110  RH  026%=      5-min Rain = 0
KQU1 120058Z 16012KT 33/11 A3001 RMK A01 T03310110  RH  026%=      5-min Rain = 0
KQU1 120059Z 15013KT 33/11 A3001 RMK A01 T03320110  RH  026%=      5-min Rain = 0
KQU1 120100Z 16013KT 33/11 A3001 RMK A01 T03330110  RH  026%=      5-min Rain = 0
KQU1 120101Z 16015KT 33/11 A3001 RMK A01 T03330111  RH  026%=      5-min Rain = 0
KQU1 120102Z 16014KT 33/11 A3001 RMK A01 T03330111  RH  026%=      5-min Rain = 0
KQU1 120103Z 16015KT 33/11 A3001 RMK A01 T03330111  RH  026%=      5-min Rain = 0
KQU1 120104Z 16014KT 33/11 A3001 RMK A01 T03320112  RH  026%=      5-min Rain = 0
KQU1 120105Z 16014KT 33/11 A3001 RMK A01 T03320112  RH  026%=      5-min Rain = 0
KQU1 120106Z 16013KT 33/11 A3001 RMK A01 T03320112  RH  026%=      5-min Rain = 0
KQU1 120107Z 15014KT 33/11 A3001 RMK A01 T03310112  RH  026%=      5-min Rain = 0
KQU1 120108Z 16015KT 33/11 A3001 RMK A01 T03310112  RH  026%=      5-min Rain = 0
KQU1 120109Z 16013KT 33/11 A3001 RMK A01 T03310113  RH  026%=      5-min Rain = 0
KQU1 120110Z 16013KT 33/11 A3001 RMK A01 T03310113  RH  026%=      5-min Rain = 0
KQU1 120111Z 15011KT 33/11 A3001 RMK A01 T03300114  RH  027%=      5-min Rain = 0
KQU1 120112Z 15015KT 33/11 A3001 RMK A01 T03300114  RH  027%=      5-min Rain = 0
KQU1 120113Z 16014KT 33/11 A3001 RMK A01 T03300113  RH  027%=      5-min Rain = 0
KQU1 120114Z 15012KT 33/11 A3001 RMK A01 T03290114  RH  027%=      5-min Rain = 0
KQU1 120115Z 16013KT 33/11 A3001 RMK A01 T03290114  RH  027%=      5-min Rain = 0
KQU1 120116Z 15012KT 33/11 A3001 RMK A01 T03290114  RH  027%=      5-min Rain = 0
KQU1 120117Z 16012KT 33/11 A3001 RMK A01 T03290114  RH  027%=      5-min Rain = 0
KQU1 120118Z 15013KT 33/11 A3001 RMK A01 T03280114  RH  027%=      5-min Rain = 0
KQU1 120119Z 16013KT 33/11 A3001 RMK A01 T03280114  RH  027%=      5-min Rain = 0
KQU1 120120Z 16013KT 33/11 A3001 RMK A01 T03280114  RH  027%=      5-min Rain = 0
KQU1 120121Z 16014KT 33/11 A3001 RMK A01 T03280114  RH  027%=      5-min Rain = 0
KQU1 120122Z 16013KT 33/11 A3001 RMK A01 T03280114  RH  027%=      5-min Rain = 0
KQU1 120123Z 17013KT 33/11 A3001 RMK A01 T03280113  RH  027%=      5-min Rain = 0
KQU1 120124Z 15012KT 33/11 A3001 RMK A01 T03280114  RH  027%=      5-min Rain = 0
KQU1 120125Z 15013KT 33/11 A3001 RMK A01 T03270113  RH  027%=      5-min Rain = 0
KQU1 120126Z 16013KT 33/11 A3001 RMK A01 T03270113  RH  027%=      5-min Rain = 0
KQU1 120127Z 16014KT 33/11 A3001 RMK A01 T03270112  RH  027%=      5-min Rain = 0
KQU1 120128Z 16012KT 33/11 A3001 RMK A01 T03270112  RH  027%=      5-min Rain = 0
KQU1 120129Z 16010KT 33/11 A3001 RMK A01 T03270113  RH  027%=      5-min Rain = 0
KQU1 120130Z 16011KT 33/11 A3001 RMK A01 T03270112  RH  027%=      5-min Rain = 0
KQU1 120131Z 15010KT 33/11 A3001 RMK A01 T03270112  RH  027%=      5-min Rain = 0
KQU1 120132Z 15011KT 33/11 A3001 RMK A01 T03270112  RH  027%=      5-min Rain = 0
KQU1 120133Z 16013KT 33/11 A3001 RMK A01 T03260112  RH  027%=      5-min Rain = 0
KQU1 120134Z 16012KT 33/11 A3001 RMK A01 T03260112  RH  027%=      5-min Rain = 0
KQU1 120135Z 16011KT 33/11 A3001 RMK A01 T03260112  RH  027%=      5-min Rain = 0
KQU1 120136Z 16011KT 33/11 A3001 RMK A01 T03260112  RH  027%=      5-min Rain = 0
KQU1 120137Z 15010KT 33/11 A3001 RMK A01 T03260112  RH  027%=      5-min Rain = 0
KQU1 120138Z 15010KT 33/11 A3001 RMK A01 T03260113  RH  027%=      5-min Rain = 0
KQU1 120139Z 15010KT 33/11 A3001 RMK A01 T03250113  RH  027%=      5-min Rain = 0
KQU1 120140Z 15011KT 33/11 A3001 RMK A01 T03250113  RH  027%=      5-min Rain = 0
KQU1 120141Z 15012KT 33/11 A3001 RMK A01 T03250113  RH  027%=      5-min Rain = 0
KQU1 120142Z 15011KT 32/11 A3001 RMK A01 T03240113  RH  027%=      5-min Rain = 0
KQU1 120143Z 15010KT 32/11 A3001 RMK A01 T03240113  RH  028%=      5-min Rain = 0
KQU1 120144Z 15009KT 32/11 A3001 RMK A01 T03230114  RH  028%=      5-min Rain = 0
KQU1 120145Z 15009KT 32/11 A3001 RMK A01 T03230114  RH  028%=      5-min Rain = 0
KQU1 120146Z 15009KT 32/12 A3001 RMK A01 T03220115  RH  028%=      5-min Rain = 0
KQU1 120147Z 14009KT 32/12 A3001 RMK A01 T03210116  RH  029%=      5-min Rain = 0
KQU1 120148Z 14009KT 32/12 A3001 RMK A01 T03200116  RH  029%=      5-min Rain = 0
KQU1 120149Z 15009KT 32/12 A3001 RMK A01 T03200116  RH  029%=      5-min Rain = 0
KQU1 120150Z 15009KT 32/12 A3001 RMK A01 T03190116  RH  029%=      5-min Rain = 0
KQU1 120151Z 15009KT 32/12 A3001 RMK A01 T03180116  RH  029%=      5-min Rain = 0
KQU1 120152Z 15010KT 32/12 A3001 RMK A01 T03170115  RH  029%=      5-min Rain = 0
KQU1 120153Z 15009KT 32/12 A3001 RMK A01 T03170115  RH  029%=      5-min Rain = 0
KQU1 120154Z 14009KT 32/12 A3001 RMK A01 T03160115  RH  029%=      5-min Rain = 0
KQU1 120155Z 15009KT 32/12 A3001 RMK A01 T03160115  RH  029%=      5-min Rain = 0
KQU1 120156Z 15009KT 32/12 A3001 RMK A01 T03150115  RH  029%=      5-min Rain = 0
KQU1 120157Z 15009KT 32/12 A3001 RMK A01 T03150115  RH  029%=      5-min Rain = 0
KQU1 120158Z 15009KT 32/12 A3002 RMK A01 T03150115  RH  029%=      5-min Rain = 0
KQU1 120159Z 15008KT 31/12 A3002 RMK A01 T03140115  RH  029%=      5-min Rain = 0
KQU1 120200Z 14008KT 31/12 A3002 RMK A01 T03140115  RH  030%=      5-min Rain = 0
KQU1 120201Z 15008KT 31/12 A3002 RMK A01 T03130115  RH  030%=      5-min Rain = 0
KQU1 120202Z 14008KT 31/12 A3002 RMK A01 T03130116  RH  030%=      5-min Rain = 0
KQU1 120203Z 14008KT 31/12 A3002 RMK A01 T03120116  RH  030%=      5-min Rain = 0
KQU1 120204Z 14008KT 31/12 A3002 RMK A01 T03120116  RH  030%=      5-min Rain = 0
KQU1 120205Z 15008KT 31/12 A3002 RMK A01 T03110116  RH  030%=      5-min Rain = 0
KQU1 120206Z 15008KT 31/12 A3002 RMK A01 T03100116  RH  030%=      5-min Rain = 0
KQU1 120207Z 15008KT 31/12 A3002 RMK A01 T03100117  RH  031%=      5-min Rain = 0
KQU1 120208Z 15008KT 31/12 A3002 RMK A01 T03090117  RH  031%=      5-min Rain = 0
KQU1 120209Z 15008KT 31/12 A3002 RMK A01 T03090117  RH  031%=      5-min Rain = 0
KQU1 120210Z 15008KT 31/12 A3002 RMK A01 T03080117  RH  031%=      5-min Rain = 0
KQU1 120211Z 15008KT 31/12 A3002 RMK A01 T03080118  RH  031%=      5-min Rain = 0
KQU1 120212Z 15008KT 31/12 A3002 RMK A01 T03070118  RH  031%=      5-min Rain = 0
KQU1 120213Z 15008KT 31/12 A3002 RMK A01 T03070118  RH  031%=      5-min Rain = 0
KQU1 120214Z 15008KT 31/12 A3002 RMK A01 T03060118  RH  032%=      5-min Rain = 0
KQU1 120215Z 15008KT 31/12 A3002 RMK A01 T03060119  RH  032%=      5-min Rain = 0
KQU1 120216Z 15008KT 31/12 A3002 RMK A01 T03050119  RH  032%=      5-min Rain = 0
KQU1 120217Z 15008KT 31/12 A3002 RMK A01 T03050119  RH  032%=      5-min Rain = 0
KQU1 120218Z 15008KT 30/12 A3002 RMK A01 T03040119  RH  032%=      5-min Rain = 0
KQU1 120219Z 15008KT 30/12 A3002 RMK A01 T03040119  RH  032%=      5-min Rain = 0
KQU1 120220Z 15007KT 30/12 A3002 RMK A01 T03030120  RH  032%=      5-min Rain = 0
KQU1 120221Z 15007KT 30/12 A3002 RMK A01 T03030120  RH  032%=      5-min Rain = 0
KQU1 120222Z 15007KT 30/12 A3002 RMK A01 T03020120  RH  033%=      5-min Rain = 0
KQU1 120223Z 14007KT 30/12 A3002 RMK A01 T03020120  RH  033%=      5-min Rain = 0
KQU1 120224Z 14007KT 30/12 A3002 RMK A01 T03010120  RH  033%=      5-min Rain = 0
KQU1 120225Z 14007KT 30/12 A3002 RMK A01 T03000121  RH  033%=      5-min Rain = 0
KQU1 120226Z 14007KT 30/12 A3002 RMK A01 T03000121  RH  033%=      5-min Rain = 0
KQU1 120227Z 14007KT 30/12 A3002 RMK A01 T02990121  RH  033%=      5-min Rain = 0
KQU1 120228Z 14007KT 30/12 A3002 RMK A01 T02990121  RH  034%=      5-min Rain = 0
KQU1 120229Z 14007KT 30/12 A3002 RMK A01 T02980122  RH  034%=      5-min Rain = 0
KQU1 120230Z 14007KT 30/12 A3003 RMK A01 T02970122  RH  034%=      5-min Rain = 0
KQU1 120231Z 14007KT 30/12 A3003 RMK A01 T02970122  RH  034%=      5-min Rain = 0
KQU1 120232Z 14007KT 30/12 A3003 RMK A01 T02970122  RH  034%=      5-min Rain = 0
KQU1 120233Z 14007KT 30/12 A3003 RMK A01 T02960123  RH  034%=      5-min Rain = 0
KQU1 120234Z 14007KT 30/12 A3003 RMK A01 T02960123  RH  034%=      5-min Rain = 0
KQU1 120235Z 14006KT 30/12 A3003 RMK A01 T02960123  RH  034%=      5-min Rain = 0
KQU1 120236Z 14006KT 30/12 A3003 RMK A01 T02950123  RH  035%=      5-min Rain = 0
KQU1 120237Z 14006KT 30/12 A3003 RMK A01 T02950123  RH  035%=      5-min Rain = 0
KQU1 120238Z 14007KT 30/12 A3003 RMK A01 T02950123  RH  035%=      5-min Rain = 0
KQU1 120239Z 14006KT 30/12 A3003 RMK A01 T02950123  RH  035%=      5-min Rain = 0
KQU1 120240Z 14006KT 30/12 A3003 RMK A01 T02950123  RH  035%=      5-min Rain = 0
KQU1 120241Z 15007KT 30/12 A3003 RMK A01 T02950123  RH  035%=      5-min Rain = 0
KQU1 120242Z 15007KT 30/12 A3003 RMK A01 T02950123  RH  035%=      5-min Rain = 0
KQU1 120243Z 15007KT 30/12 A3003 RMK A01 T02950123  RH  035%=      5-min Rain = 0
KQU1 120244Z 15006KT 30/12 A3004 RMK A01 T02950123  RH  035%=      5-min Rain = 0
KQU1 120245Z 15006KT 30/12 A3004 RMK A01 T02950124  RH  035%=      5-min Rain = 0
KQU1 120246Z 15006KT 30/12 A3004 RMK A01 T02950124  RH  035%=      5-min Rain = 0
KQU1 120247Z 15006KT 29/12 A3004 RMK A01 T02940124  RH  035%=      5-min Rain = 0
KQU1 120248Z 15006KT 29/13 A3004 RMK A01 T02940125  RH  035%=      5-min Rain = 0
KQU1 120249Z 15006KT 29/13 A3004 RMK A01 T02940125  RH  035%=      5-min Rain = 0
KQU1 120250Z 15006KT 29/13 A3004 RMK A01 T02940126  RH  036%=      5-min Rain = 0
KQU1 120251Z 15006KT 29/13 A3004 RMK A01 T02930126  RH  036%=      5-min Rain = 0
KQU1 120252Z 15006KT 29/13 A3004 RMK A01 T02930126  RH  036%=      5-min Rain = 0
KQU1 120253Z 16006KT 29/13 A3004 RMK A01 T02930127  RH  036%=      5-min Rain = 0
KQU1 120254Z 16006KT 29/13 A3004 RMK A01 T02930127  RH  036%=      5-min Rain = 0
KQU1 120255Z 16006KT 29/13 A3004 RMK A01 T02930127  RH  036%=      5-min Rain = 0
KQU1 120256Z 16006KT 29/13 A3004 RMK A01 T02930127  RH  036%=      5-min Rain = 0
KQU1 120257Z 16006KT 29/13 A3004 RMK A01 T02930128  RH  036%=      5-min Rain = 0
KQU1 120258Z 15006KT 29/13 A3004 RMK A01 T02930128  RH  036%=      5-min Rain = 0
KQU1 120259Z 16006KT 29/13 A3004 RMK A01 T02930129  RH  037%=      5-min Rain = 0
KQU1 120300Z 16006KT 29/13 A3004 RMK A01 T02930129  RH  037%=      5-min Rain = 0
KQU1 120301Z 16006KT 29/13 A3004 RMK A01 T02930129  RH  037%=      5-min Rain = 0
KQU1 120302Z 16006KT 29/13 A3004 RMK A01 T02920129  RH  037%=      5-min Rain = 0
KQU1 120303Z 16006KT 29/13 A3004 RMK A01 T02920129  RH  037%=      5-min Rain = 0
KQU1 120304Z 16006KT 29/13 A3004 RMK A01 T02920129  RH  037%=      5-min Rain = 0
KQU1 120305Z 16007KT 29/13 A3004 RMK A01 T02920129  RH  037%=      5-min Rain = 0
KQU1 120306Z 16006KT 29/13 A3004 RMK A01 T02920128  RH  036%=      5-min Rain = 0
KQU1 120307Z 16006KT 29/13 A3004 RMK A01 T02930128  RH  036%=      5-min Rain = 0
KQU1 120308Z 16006KT 29/13 A3004 RMK A01 T02930128  RH  036%=      5-min Rain = 0
KQU1 120309Z 16006KT 29/13 A3005 RMK A01 T02930128  RH  036%=      5-min Rain = 0
KQU1 120310Z 16006KT 29/13 A3005 RMK A01 T02930128  RH  036%=      5-min Rain = 0
KQU1 120311Z 16006KT 29/13 A3005 RMK A01 T02920128  RH  036%=      5-min Rain = 0
KQU1 120312Z 16006KT 29/13 A3005 RMK A01 T02920128  RH  037%=      5-min Rain = 0
KQU1 120313Z 15005KT 29/13 A3005 RMK A01 T02920129  RH  037%=      5-min Rain = 0
KQU1 120314Z 16005KT 29/13 A3005 RMK A01 T02910129  RH  037%=      5-min Rain = 0
KQU1 120315Z 16005KT 29/13 A3005 RMK A01 T02910129  RH  037%=      5-min Rain = 0
KQU1 120316Z 16005KT 29/13 A3005 RMK A01 T02900130  RH  037%=      5-min Rain = 0
KQU1 120317Z 16005KT 29/13 A3005 RMK A01 T02900130  RH  037%=      5-min Rain = 0
KQU1 120318Z 15005KT 29/13 A3005 RMK A01 T02890130  RH  038%=      5-min Rain = 0
KQU1 120319Z 15005KT 29/13 A3005 RMK A01 T02890131  RH  038%=      5-min Rain = 0
KQU1 120320Z 15005KT 29/13 A3005 RMK A01 T02890131  RH  038%=      5-min Rain = 0
KQU1 120321Z 15005KT 29/13 A3006 RMK A01 T02880132  RH  038%=      5-min Rain = 0
KQU1 120322Z 15006KT 29/13 A3006 RMK A01 T02880132  RH  038%=      5-min Rain = 0
KQU1 120323Z 15006KT 29/13 A3006 RMK A01 T02880133  RH  039%=      5-min Rain = 0
KQU1 120324Z 15006KT 29/13 A3006 RMK A01 T02870134  RH  039%=      5-min Rain = 0
KQU1 120325Z 15007KT 29/13 A3006 RMK A01 T02870134  RH  039%=      5-min Rain = 0
KQU1 120326Z 15006KT 29/14 A3006 RMK A01 T02860135  RH  039%=      5-min Rain = 0
KQU1 120327Z 15006KT 29/14 A3006 RMK A01 T02860135  RH  039%=      5-min Rain = 0
KQU1 120328Z 15006KT 29/14 A3006 RMK A01 T02860135  RH  040%=      5-min Rain = 0
KQU1 120329Z 15006KT 29/14 A3006 RMK A01 T02860135  RH  040%=      5-min Rain = 0
KQU1 120330Z 15006KT 29/14 A3006 RMK A01 T02860135  RH  040%=      5-min Rain = 0
KQU1 120331Z 15006KT 29/14 A3006 RMK A01 T02860135  RH  040%=      5-min Rain = 0
KQU1 120332Z 15006KT 29/14 A3006 RMK A01 T02860135  RH  040%=      5-min Rain = 0
KQU1 120333Z 16006KT 29/14 A3006 RMK A01 T02860135  RH  039%=      5-min Rain = 0
KQU1 120334Z 16007KT 29/14 A3006 RMK A01 T02860135  RH  039%=      5-min Rain = 0
KQU1 120335Z 16006KT 29/14 A3006 RMK A01 T02860135  RH  039%=      5-min Rain = 0
KQU1 120336Z 16006KT 29/14 A3006 RMK A01 T02860135  RH  039%=      5-min Rain = 0
KQU1 120337Z 16006KT 29/14 A3006 RMK A01 T02860135  RH  039%=      5-min Rain = 0
KQU1 120338Z 16006KT 29/13 A3006 RMK A01 T02860134  RH  039%=      5-min Rain = 0
KQU1 120339Z 16006KT 29/13 A3006 RMK A01 T02860134  RH  039%=      5-min Rain = 0
KQU1 120340Z 16006KT 29/13 A3006 RMK A01 T02870134  RH  039%=      5-min Rain = 0
KQU1 120341Z 16006KT 29/13 A3006 RMK A01 T02870133  RH  039%=      5-min Rain = 0
KQU1 120342Z 17006KT 29/13 A3006 RMK A01 T02870133  RH  039%=      5-min Rain = 0
KQU1 120343Z 17005KT 29/13 A3006 RMK A01 T02870133  RH  039%=      5-min Rain = 0
KQU1 120344Z 17005KT 29/13 A3006 RMK A01 T02870133  RH  039%=      5-min Rain = 0
KQU1 120345Z 17005KT 29/13 A3006 RMK A01 T02870132  RH  039%=      5-min Rain = 0
KQU1 120346Z 17005KT 29/13 A3006 RMK A01 T02870132  RH  039%=      5-min Rain = 0
KQU1 120347Z 18005KT 29/13 A3006 RMK A01 T02870132  RH  038%=      5-min Rain = 0
KQU1 120348Z 18005KT 29/13 A3006 RMK A01 T02870131  RH  038%=      5-min Rain = 0
KQU1 120349Z 19005KT 29/13 A3006 RMK A01 T02880131  RH  038%=      5-min Rain = 0
KQU1 120350Z 19005KT 29/13 A3006 RMK A01 T02880130  RH  038%=      5-min Rain = 0
KQU1 120351Z 20004KT 29/13 A3006 RMK A01 T02880129  RH  038%=      5-min Rain = 0
KQU1 120352Z 21004KT 29/13 A3006 RMK A01 T02870128  RH  038%=      5-min Rain = 0
KQU1 120353Z 20005KT 29/13 A3006 RMK A01 T02860128  RH  038%=      5-min Rain = 0
KQU1 120354Z 21005KT 29/13 A3006 RMK A01 T02850128  RH  038%=      5-min Rain = 0
KQU1 120355Z 20005KT 28/13 A3006 RMK A01 T02840128  RH  038%=      5-min Rain = 0
KQU1 120356Z 20005KT 28/13 A3006 RMK A01 T02840129  RH  038%=      5-min Rain = 0
KQU1 120357Z 20005KT 28/13 A3006 RMK A01 T02830129  RH  038%=      5-min Rain = 0
KQU1 120358Z 21005KT 28/13 A3006 RMK A01 T02830129  RH  039%=      5-min Rain = 0
KQU1 120359Z 20005KT 28/13 A3006 RMK A01 T02830129  RH  039%=      5-min Rain = 0
KQU1 120400Z 21005KT 28/13 A3006 RMK A01 T02830129  RH  039%=      5-min Rain = 0
KQU1 120401Z 20005KT 28/13 A3006 RMK A01 T02820130  RH  039%=      5-min Rain = 0
KQU1 120402Z 20005KT 28/13 A3006 RMK A01 T02820130  RH  039%=      5-min Rain = 0
KQU1 120403Z 20005KT 28/13 A3006 RMK A01 T02830130  RH  039%=      5-min Rain = 0
KQU1 120404Z 20005KT 28/13 A3006 RMK A01 T02830130  RH  039%=      5-min Rain = 0
KQU1 120405Z 20005KT 28/13 A3006 RMK A01 T02830130  RH  039%=      5-min Rain = 0
KQU1 120406Z 19005KT 28/13 A3006 RMK A01 T02830130  RH  039%=      5-min Rain = 0
KQU1 120407Z 19005KT 28/13 A3006 RMK A01 T02830130  RH  039%=      5-min Rain = 0
KQU1 120408Z 19005KT 28/13 A3006 RMK A01 T02840130  RH  039%=      5-min Rain = 0
KQU1 120409Z 19005KT 28/13 A3006 RMK A01 T02840130  RH  039%=      5-min Rain = 0
KQU1 120410Z 19005KT 28/13 A3006 RMK A01 T02840130  RH  039%=      5-min Rain = 0
KQU1 120411Z 19005KT 28/13 A3006 RMK A01 T02840130  RH  039%=      5-min Rain = 0
KQU1 120412Z 18005KT 28/13 A3006 RMK A01 T02840130  RH  039%=      5-min Rain = 0
KQU1 120413Z 18005KT 28/13 A3006 RMK A01 T02830130  RH  039%=      5-min Rain = 0
KQU1 120414Z 18005KT 28/13 A3006 RMK A01 T02830130  RH  039%=      5-min Rain = 0
KQU1 120415Z 18005KT 28/13 A3006 RMK A01 T02830130  RH  039%=      5-min Rain = 0
KQU1 120416Z 18004KT 28/13 A3006 RMK A01 T02830131  RH  039%=      5-min Rain = 0
KQU1 120417Z 18005KT 28/13 A3006 RMK A01 T02830131  RH  039%=      5-min Rain = 0
KQU1 120418Z 18005KT 28/13 A3006 RMK A01 T02830131  RH  039%=      5-min Rain = 0
KQU1 120419Z 18005KT 28/13 A3006 RMK A01 T02820131  RH  039%=      5-min Rain = 0
KQU1 120420Z 18005KT 28/13 A3006 RMK A01 T02820131  RH  039%=      5-min Rain = 0
KQU1 120421Z 18005KT 28/13 A3006 RMK A01 T02820131  RH  040%=      5-min Rain = 0
KQU1 120422Z 19005KT 28/13 A3006 RMK A01 T02820132  RH  040%=      5-min Rain = 0
KQU1 120423Z 18005KT 28/13 A3006 RMK A01 T02820132  RH  040%=      5-min Rain = 0
KQU1 120424Z 19006KT 28/13 A3006 RMK A01 T02820132  RH  040%=      5-min Rain = 0
KQU1 120425Z 18006KT 28/13 A3006 RMK A01 T02820132  RH  040%=      5-min Rain = 0
KQU1 120426Z 18006KT 28/13 A3006 RMK A01 T02820133  RH  040%=      5-min Rain = 0
KQU1 120427Z 18005KT 28/13 A3006 RMK A01 T02810133  RH  040%=      5-min Rain = 0
KQU1 120428Z 19005KT 28/13 A3006 RMK A01 T02810133  RH  040%=      5-min Rain = 0
KQU1 120429Z 19005KT 28/13 A3006 RMK A01 T02810133  RH  040%=      5-min Rain = 0
KQU1 120430Z 19006KT 28/13 A3006 RMK A01 T02810133  RH  040%=      5-min Rain = 0
KQU1 120431Z 19006KT 28/13 A3006 RMK A01 T02810133  RH  040%=      5-min Rain = 0
KQU1 120432Z 19006KT 28/13 A3006 RMK A01 T02810133  RH  040%=      5-min Rain = 0
KQU1 120433Z 18006KT 28/13 A3006 RMK A01 T02810133  RH  040%=      5-min Rain = 0
KQU1 120434Z 18006KT 28/13 A3006 RMK A01 T02810134  RH  040%=      5-min Rain = 0
KQU1 120435Z 18005KT 28/13 A3006 RMK A01 T02810134  RH  040%=      5-min Rain = 0
KQU1 120436Z 18006KT 28/13 A3006 RMK A01 T02810134  RH  040%=      5-min Rain = 0
KQU1 120437Z 18005KT 28/13 A3006 RMK A01 T02800134  RH  041%=      5-min Rain = 0
KQU1 120438Z 18005KT 28/13 A3006 RMK A01 T02800134  RH  041%=      5-min Rain = 0
KQU1 120439Z 17006KT 28/14 A3006 RMK A01 T02800135  RH  041%=      5-min Rain = 0
KQU1 120440Z 18005KT 28/14 A3006 RMK A01 T02790135  RH  041%=      5-min Rain = 0
KQU1 120441Z 18006KT 28/14 A3006 RMK A01 T02790135  RH  041%=      5-min Rain = 0
KQU1 120442Z 18006KT 28/14 A3006 RMK A01 T02790135  RH  041%=      5-min Rain = 0
KQU1 120443Z 18005KT 28/14 A3006 RMK A01 T02790135  RH  041%=      5-min Rain = 0
KQU1 120444Z 19005KT 28/14 A3006 RMK A01 T02780135  RH  041%=      5-min Rain = 0
KQU1 120445Z 19006KT 28/14 A3006 RMK A01 T02780135  RH  041%=      5-min Rain = 0
KQU1 120446Z 19006KT 28/14 A3006 RMK A01 T02780135  RH  041%=      5-min Rain = 0
KQU1 120447Z 19006KT 28/14 A3006 RMK A01 T02780135  RH  041%=      5-min Rain = 0
KQU1 120448Z 20006KT 28/14 A3006 RMK A01 T02770135  RH  041%=      5-min Rain = 0
KQU1 120449Z 20006KT 28/14 A3006 RMK A01 T02770135  RH  042%=      5-min Rain = 0
KQU1 120450Z 20006KT 28/14 A3006 RMK A01 T02760135  RH  042%=      5-min Rain = 0
KQU1 120451Z 20007KT 28/14 A3006 RMK A01 T02760135  RH  042%=      5-min Rain = 0
KQU1 120452Z 20006KT 28/14 A3006 RMK A01 T02750135  RH  042%=      5-min Rain = 0
KQU1 120453Z 20007KT 28/14 A3006 RMK A01 T02750135  RH  042%=      5-min Rain = 0
KQU1 120454Z 20006KT 28/14 A3006 RMK A01 T02750135  RH  042%=      5-min Rain = 0
KQU1 120455Z 20006KT 28/14 A3006 RMK A01 T02750135  RH  042%=      5-min Rain = 0
KQU1 120456Z 20007KT 28/14 A3006 RMK A01 T02750135  RH  042%=      5-min Rain = 0
KQU1 120457Z 20007KT 28/14 A3006 RMK A01 T02750135  RH  042%=      5-min Rain = 0
KQU1 120458Z 20007KT 28/14 A3006 RMK A01 T02750135  RH  042%=      5-min Rain = 0
KQU1 120459Z 20007KT 27/14 A3007 RMK A01 T02740135  RH  042%=      5-min Rain = 0

Page generated in 0.0331 seconds.